<?xml version="1.0" encoding="UTF-8" standalone="no" ?>
<gpx xmlns="http://www.topografix.com/GPX/1/1" xmlns:xsi="http://www.w3.org/2001/XMLSchema-instance" xsi:schemaLocation="http://www.topografix.com/GPX/1/1 http://www.topografix.com/GPX/1/1/gpx.xsd" version="1.1" creator="VisuGPX - https://www.visugpx.com">
  <metadata>
    <name>Courir pour une fleur Antibes 2011</name>
    <desc><![CDATA[Runmeter Course 2 oct. 2011 10:05:54]]></desc>
  </metadata>
  <trk>
    <name><![CDATA[Nouveau parcours]]></name>
    <trkseg>
      <trkpt lat="43.56534" lon="7.11569">
        <ele>5.7</ele>
        <time>2011-10-02T08:05:54Z</time>
      </trkpt>
      <trkpt lat="43.56533" lon="7.11568">
        <ele>5.7</ele>
        <time>2011-10-02T08:05:56Z</time>
      </trkpt>
      <trkpt lat="43.56514" lon="7.11568">
        <ele>6.1</ele>
        <time>2011-10-02T08:06:07Z</time>
      </trkpt>
      <trkpt lat="43.56498" lon="7.11571">
        <ele>6.3</ele>
        <time>2011-10-02T08:06:15Z</time>
      </trkpt>
      <trkpt lat="43.56483" lon="7.11572">
        <ele>6.5</ele>
        <time>2011-10-02T08:06:21Z</time>
      </trkpt>
      <trkpt lat="43.56469" lon="7.11579">
        <ele>6.6</ele>
        <time>2011-10-02T08:06:26Z</time>
      </trkpt>
      <trkpt lat="43.56457" lon="7.11588">
        <ele>6.8</ele>
        <time>2011-10-02T08:06:31Z</time>
      </trkpt>
      <trkpt lat="43.56444" lon="7.11595">
        <ele>6.9</ele>
        <time>2011-10-02T08:06:36Z</time>
      </trkpt>
      <trkpt lat="43.5643" lon="7.11602">
        <ele>7.1</ele>
        <time>2011-10-02T08:06:40Z</time>
      </trkpt>
      <trkpt lat="43.56418" lon="7.11611">
        <ele>7.3</ele>
        <time>2011-10-02T08:06:47Z</time>
      </trkpt>
      <trkpt lat="43.56403" lon="7.11625">
        <ele>7.5</ele>
        <time>2011-10-02T08:06:53Z</time>
      </trkpt>
      <trkpt lat="43.5639" lon="7.11637">
        <ele>7.7</ele>
        <time>2011-10-02T08:07:00Z</time>
      </trkpt>
      <trkpt lat="43.5638" lon="7.11652">
        <ele>7.9</ele>
        <time>2011-10-02T08:07:06Z</time>
      </trkpt>
      <trkpt lat="43.56372" lon="7.11667">
        <ele>8</ele>
        <time>2011-10-02T08:07:11Z</time>
      </trkpt>
      <trkpt lat="43.56366" lon="7.11688">
        <ele>8.2</ele>
        <time>2011-10-02T08:07:16Z</time>
      </trkpt>
      <trkpt lat="43.56357" lon="7.11707">
        <ele>8.4</ele>
        <time>2011-10-02T08:07:22Z</time>
      </trkpt>
      <trkpt lat="43.56347" lon="7.11722">
        <ele>8.5</ele>
        <time>2011-10-02T08:07:28Z</time>
      </trkpt>
      <trkpt lat="43.56335" lon="7.11738">
        <ele>8.7</ele>
        <time>2011-10-02T08:07:33Z</time>
      </trkpt>
      <trkpt lat="43.56323" lon="7.1175">
        <ele>8.9</ele>
        <time>2011-10-02T08:07:39Z</time>
      </trkpt>
      <trkpt lat="43.56309" lon="7.11759">
        <ele>9</ele>
        <time>2011-10-02T08:07:44Z</time>
      </trkpt>
      <trkpt lat="43.56292" lon="7.11761">
        <ele>9.2</ele>
        <time>2011-10-02T08:07:48Z</time>
      </trkpt>
      <trkpt lat="43.56276" lon="7.11761">
        <ele>9.3</ele>
        <time>2011-10-02T08:07:54Z</time>
      </trkpt>
      <trkpt lat="43.56261" lon="7.11762">
        <ele>9.5</ele>
        <time>2011-10-02T08:07:59Z</time>
      </trkpt>
      <trkpt lat="43.56246" lon="7.11765">
        <ele>9.7</ele>
        <time>2011-10-02T08:08:04Z</time>
      </trkpt>
      <trkpt lat="43.56232" lon="7.11768">
        <ele>9.8</ele>
        <time>2011-10-02T08:08:09Z</time>
      </trkpt>
      <trkpt lat="43.56219" lon="7.11775">
        <ele>10</ele>
        <time>2011-10-02T08:08:14Z</time>
      </trkpt>
      <trkpt lat="43.56207" lon="7.11785">
        <ele>10.1</ele>
        <time>2011-10-02T08:08:19Z</time>
      </trkpt>
      <trkpt lat="43.56195" lon="7.11796">
        <ele>10.3</ele>
        <time>2011-10-02T08:08:24Z</time>
      </trkpt>
      <trkpt lat="43.56184" lon="7.11807">
        <ele>10.4</ele>
        <time>2011-10-02T08:08:29Z</time>
      </trkpt>
      <trkpt lat="43.56171" lon="7.1182">
        <ele>10.6</ele>
        <time>2011-10-02T08:08:34Z</time>
      </trkpt>
      <trkpt lat="43.56162" lon="7.11834">
        <ele>10.8</ele>
        <time>2011-10-02T08:08:40Z</time>
      </trkpt>
      <trkpt lat="43.56155" lon="7.11852">
        <ele>10.9</ele>
        <time>2011-10-02T08:08:45Z</time>
      </trkpt>
      <trkpt lat="43.56152" lon="7.1187">
        <ele>11.1</ele>
        <time>2011-10-02T08:08:50Z</time>
      </trkpt>
      <trkpt lat="43.56146" lon="7.11892">
        <ele>11.3</ele>
        <time>2011-10-02T08:08:56Z</time>
      </trkpt>
      <trkpt lat="43.56139" lon="7.1191">
        <ele>11.5</ele>
        <time>2011-10-02T08:09:03Z</time>
      </trkpt>
      <trkpt lat="43.56129" lon="7.11927">
        <ele>11.7</ele>
        <time>2011-10-02T08:09:09Z</time>
      </trkpt>
      <trkpt lat="43.5612" lon="7.11944">
        <ele>11.8</ele>
        <time>2011-10-02T08:09:15Z</time>
      </trkpt>
      <trkpt lat="43.56109" lon="7.11959">
        <ele>12</ele>
        <time>2011-10-02T08:09:20Z</time>
      </trkpt>
      <trkpt lat="43.561" lon="7.11976">
        <ele>12.1</ele>
        <time>2011-10-02T08:09:25Z</time>
      </trkpt>
      <trkpt lat="43.56091" lon="7.1199">
        <ele>12.3</ele>
        <time>2011-10-02T08:09:30Z</time>
      </trkpt>
      <trkpt lat="43.5608" lon="7.12005">
        <ele>12.4</ele>
        <time>2011-10-02T08:09:34Z</time>
      </trkpt>
      <trkpt lat="43.56071" lon="7.12019">
        <ele>12.6</ele>
        <time>2011-10-02T08:09:40Z</time>
      </trkpt>
      <trkpt lat="43.56062" lon="7.12034">
        <ele>12.8</ele>
        <time>2011-10-02T08:09:45Z</time>
      </trkpt>
      <trkpt lat="43.56052" lon="7.12051">
        <ele>13</ele>
        <time>2011-10-02T08:09:52Z</time>
      </trkpt>
      <trkpt lat="43.56043" lon="7.12067">
        <ele>13.1</ele>
        <time>2011-10-02T08:09:56Z</time>
      </trkpt>
      <trkpt lat="43.56035" lon="7.12082">
        <ele>13.3</ele>
        <time>2011-10-02T08:10:02Z</time>
      </trkpt>
      <trkpt lat="43.56024" lon="7.12098">
        <ele>13.5</ele>
        <time>2011-10-02T08:10:08Z</time>
      </trkpt>
      <trkpt lat="43.56012" lon="7.12117">
        <ele>13.6</ele>
        <time>2011-10-02T08:10:13Z</time>
      </trkpt>
      <trkpt lat="43.56001" lon="7.12134">
        <ele>13.8</ele>
        <time>2011-10-02T08:10:19Z</time>
      </trkpt>
      <trkpt lat="43.55993" lon="7.12148">
        <ele>13.9</ele>
        <time>2011-10-02T08:10:22Z</time>
      </trkpt>
      <trkpt lat="43.55981" lon="7.12162">
        <ele>14.1</ele>
        <time>2011-10-02T08:10:28Z</time>
      </trkpt>
      <trkpt lat="43.55968" lon="7.12172">
        <ele>14.2</ele>
        <time>2011-10-02T08:10:33Z</time>
      </trkpt>
      <trkpt lat="43.55955" lon="7.12179">
        <ele>14.4</ele>
        <time>2011-10-02T08:10:38Z</time>
      </trkpt>
      <trkpt lat="43.55937" lon="7.12187">
        <ele>14.6</ele>
        <time>2011-10-02T08:10:44Z</time>
      </trkpt>
      <trkpt lat="43.55921" lon="7.12189">
        <ele>14.8</ele>
        <time>2011-10-02T08:10:50Z</time>
      </trkpt>
      <trkpt lat="43.55906" lon="7.12185">
        <ele>14.9</ele>
        <time>2011-10-02T08:10:55Z</time>
      </trkpt>
      <trkpt lat="43.55891" lon="7.12183">
        <ele>15</ele>
        <time>2011-10-02T08:10:59Z</time>
      </trkpt>
      <trkpt lat="43.55876" lon="7.12182">
        <ele>15.2</ele>
        <time>2011-10-02T08:11:05Z</time>
      </trkpt>
      <trkpt lat="43.55861" lon="7.12182">
        <ele>15.3</ele>
        <time>2011-10-02T08:11:09Z</time>
      </trkpt>
      <trkpt lat="43.55847" lon="7.1218">
        <ele>15.5</ele>
        <time>2011-10-02T08:11:15Z</time>
      </trkpt>
      <trkpt lat="43.55831" lon="7.12181">
        <ele>15.7</ele>
        <time>2011-10-02T08:11:21Z</time>
      </trkpt>
      <trkpt lat="43.55812" lon="7.12186">
        <ele>15.8</ele>
        <time>2011-10-02T08:11:27Z</time>
      </trkpt>
      <trkpt lat="43.55798" lon="7.12191">
        <ele>15.9</ele>
        <time>2011-10-02T08:11:32Z</time>
      </trkpt>
      <trkpt lat="43.55784" lon="7.12198">
        <ele>16</ele>
        <time>2011-10-02T08:11:38Z</time>
      </trkpt>
      <trkpt lat="43.55771" lon="7.12204">
        <ele>16</ele>
        <time>2011-10-02T08:11:43Z</time>
      </trkpt>
      <trkpt lat="43.55757" lon="7.12208">
        <ele>16.1</ele>
        <time>2011-10-02T08:11:47Z</time>
      </trkpt>
      <trkpt lat="43.55743" lon="7.12209">
        <ele>16.2</ele>
        <time>2011-10-02T08:11:53Z</time>
      </trkpt>
      <trkpt lat="43.5573" lon="7.12209">
        <ele>16.3</ele>
        <time>2011-10-02T08:11:57Z</time>
      </trkpt>
      <trkpt lat="43.55714" lon="7.12206">
        <ele>16.4</ele>
        <time>2011-10-02T08:12:04Z</time>
      </trkpt>
      <trkpt lat="43.55699" lon="7.12201">
        <ele>16.4</ele>
        <time>2011-10-02T08:12:09Z</time>
      </trkpt>
      <trkpt lat="43.55685" lon="7.12195">
        <ele>16.5</ele>
        <time>2011-10-02T08:12:14Z</time>
      </trkpt>
      <trkpt lat="43.55672" lon="7.12187">
        <ele>16.6</ele>
        <time>2011-10-02T08:12:19Z</time>
      </trkpt>
      <trkpt lat="43.5566" lon="7.12178">
        <ele>16.7</ele>
        <time>2011-10-02T08:12:24Z</time>
      </trkpt>
      <trkpt lat="43.55648" lon="7.12168">
        <ele>16.7</ele>
        <time>2011-10-02T08:12:29Z</time>
      </trkpt>
      <trkpt lat="43.55635" lon="7.12159">
        <ele>16.8</ele>
        <time>2011-10-02T08:12:34Z</time>
      </trkpt>
      <trkpt lat="43.55621" lon="7.1215">
        <ele>16.9</ele>
        <time>2011-10-02T08:12:39Z</time>
      </trkpt>
      <trkpt lat="43.55605" lon="7.12136">
        <ele>17</ele>
        <time>2011-10-02T08:12:44Z</time>
      </trkpt>
      <trkpt lat="43.55591" lon="7.12128">
        <ele>17</ele>
        <time>2011-10-02T08:12:50Z</time>
      </trkpt>
      <trkpt lat="43.55576" lon="7.12123">
        <ele>17.1</ele>
        <time>2011-10-02T08:12:55Z</time>
      </trkpt>
      <trkpt lat="43.55561" lon="7.12122">
        <ele>17.2</ele>
        <time>2011-10-02T08:13:00Z</time>
      </trkpt>
      <trkpt lat="43.55546" lon="7.12121">
        <ele>17.3</ele>
        <time>2011-10-02T08:13:05Z</time>
      </trkpt>
      <trkpt lat="43.55531" lon="7.12119">
        <ele>17.3</ele>
        <time>2011-10-02T08:13:10Z</time>
      </trkpt>
      <trkpt lat="43.55518" lon="7.12124">
        <ele>17.4</ele>
        <time>2011-10-02T08:13:15Z</time>
      </trkpt>
      <trkpt lat="43.5551" lon="7.12141">
        <ele>17.5</ele>
        <time>2011-10-02T08:13:19Z</time>
      </trkpt>
      <trkpt lat="43.55503" lon="7.12161">
        <ele>17.6</ele>
        <time>2011-10-02T08:13:25Z</time>
      </trkpt>
      <trkpt lat="43.55496" lon="7.12177">
        <ele>17.6</ele>
        <time>2011-10-02T08:13:29Z</time>
      </trkpt>
      <trkpt lat="43.55489" lon="7.12196">
        <ele>17.7</ele>
        <time>2011-10-02T08:13:33Z</time>
      </trkpt>
      <trkpt lat="43.55481" lon="7.12212">
        <ele>17.7</ele>
        <time>2011-10-02T08:13:37Z</time>
      </trkpt>
      <trkpt lat="43.55472" lon="7.12228">
        <ele>17.8</ele>
        <time>2011-10-02T08:13:42Z</time>
      </trkpt>
      <trkpt lat="43.5546" lon="7.12237">
        <ele>17.9</ele>
        <time>2011-10-02T08:13:47Z</time>
      </trkpt>
      <trkpt lat="43.55445" lon="7.12245">
        <ele>18</ele>
        <time>2011-10-02T08:13:53Z</time>
      </trkpt>
      <trkpt lat="43.55433" lon="7.12253">
        <ele>18.1</ele>
        <time>2011-10-02T08:13:58Z</time>
      </trkpt>
      <trkpt lat="43.55419" lon="7.12256">
        <ele>18.1</ele>
        <time>2011-10-02T08:14:03Z</time>
      </trkpt>
      <trkpt lat="43.55404" lon="7.12255">
        <ele>18.2</ele>
        <time>2011-10-02T08:14:07Z</time>
      </trkpt>
      <trkpt lat="43.55389" lon="7.12253">
        <ele>18.3</ele>
        <time>2011-10-02T08:14:14Z</time>
      </trkpt>
      <trkpt lat="43.55376" lon="7.12243">
        <ele>18.4</ele>
        <time>2011-10-02T08:14:20Z</time>
      </trkpt>
      <trkpt lat="43.55365" lon="7.12232">
        <ele>18.5</ele>
        <time>2011-10-02T08:14:25Z</time>
      </trkpt>
      <trkpt lat="43.55348" lon="7.12225">
        <ele>18.5</ele>
        <time>2011-10-02T08:14:30Z</time>
      </trkpt>
      <trkpt lat="43.55331" lon="7.12222">
        <ele>18.6</ele>
        <time>2011-10-02T08:14:37Z</time>
      </trkpt>
      <trkpt lat="43.55316" lon="7.12224">
        <ele>18.8</ele>
        <time>2011-10-02T08:14:44Z</time>
      </trkpt>
      <trkpt lat="43.55299" lon="7.12231">
        <ele>18.8</ele>
        <time>2011-10-02T08:14:49Z</time>
      </trkpt>
      <trkpt lat="43.55284" lon="7.12233">
        <ele>18.9</ele>
        <time>2011-10-02T08:14:54Z</time>
      </trkpt>
      <trkpt lat="43.55268" lon="7.12233">
        <ele>19</ele>
        <time>2011-10-02T08:15:00Z</time>
      </trkpt>
      <trkpt lat="43.55252" lon="7.1223">
        <ele>19.1</ele>
        <time>2011-10-02T08:15:05Z</time>
      </trkpt>
      <trkpt lat="43.55239" lon="7.12225">
        <ele>19.1</ele>
        <time>2011-10-02T08:15:10Z</time>
      </trkpt>
      <trkpt lat="43.55222" lon="7.12213">
        <ele>19.2</ele>
        <time>2011-10-02T08:15:15Z</time>
      </trkpt>
      <trkpt lat="43.5521" lon="7.12196">
        <ele>19.3</ele>
        <time>2011-10-02T08:15:22Z</time>
      </trkpt>
      <trkpt lat="43.552" lon="7.12176">
        <ele>19.4</ele>
        <time>2011-10-02T08:15:28Z</time>
      </trkpt>
      <trkpt lat="43.55195" lon="7.12159">
        <ele>19.5</ele>
        <time>2011-10-02T08:15:34Z</time>
      </trkpt>
      <trkpt lat="43.5519" lon="7.12146">
        <ele>19.6</ele>
        <time>2011-10-02T08:15:38Z</time>
      </trkpt>
      <trkpt lat="43.55172" lon="7.12139">
        <ele>19.6</ele>
        <time>2011-10-02T08:15:43Z</time>
      </trkpt>
      <trkpt lat="43.55156" lon="7.12132">
        <ele>19.7</ele>
        <time>2011-10-02T08:15:48Z</time>
      </trkpt>
      <trkpt lat="43.55142" lon="7.1213">
        <ele>19.8</ele>
        <time>2011-10-02T08:15:55Z</time>
      </trkpt>
      <trkpt lat="43.55128" lon="7.12125">
        <ele>19.9</ele>
        <time>2011-10-02T08:16:00Z</time>
      </trkpt>
      <trkpt lat="43.55115" lon="7.12112">
        <ele>20</ele>
        <time>2011-10-02T08:16:05Z</time>
      </trkpt>
      <trkpt lat="43.55105" lon="7.12094">
        <ele>20</ele>
        <time>2011-10-02T08:16:10Z</time>
      </trkpt>
      <trkpt lat="43.55096" lon="7.12075">
        <ele>20.1</ele>
        <time>2011-10-02T08:16:14Z</time>
      </trkpt>
      <trkpt lat="43.55089" lon="7.12052">
        <ele>20.2</ele>
        <time>2011-10-02T08:16:20Z</time>
      </trkpt>
      <trkpt lat="43.55087" lon="7.12032">
        <ele>20.3</ele>
        <time>2011-10-02T08:16:25Z</time>
      </trkpt>
      <trkpt lat="43.55089" lon="7.12013">
        <ele>20.3</ele>
        <time>2011-10-02T08:16:30Z</time>
      </trkpt>
      <trkpt lat="43.55093" lon="7.11992">
        <ele>20.4</ele>
        <time>2011-10-02T08:16:37Z</time>
      </trkpt>
      <trkpt lat="43.55098" lon="7.11967">
        <ele>20.5</ele>
        <time>2011-10-02T08:16:42Z</time>
      </trkpt>
      <trkpt lat="43.55102" lon="7.11949">
        <ele>20.6</ele>
        <time>2011-10-02T08:16:49Z</time>
      </trkpt>
      <trkpt lat="43.551" lon="7.1192">
        <ele>20.7</ele>
        <time>2011-10-02T08:16:55Z</time>
      </trkpt>
      <trkpt lat="43.551" lon="7.11899">
        <ele>20.9</ele>
        <time>2011-10-02T08:17:04Z</time>
      </trkpt>
      <trkpt lat="43.55083" lon="7.11896">
        <ele>20.9</ele>
        <time>2011-10-02T08:17:08Z</time>
      </trkpt>
      <trkpt lat="43.55068" lon="7.1189">
        <ele>21</ele>
        <time>2011-10-02T08:17:12Z</time>
      </trkpt>
      <trkpt lat="43.55051" lon="7.11887">
        <ele>21</ele>
        <time>2011-10-02T08:17:16Z</time>
      </trkpt>
      <trkpt lat="43.55032" lon="7.11881">
        <ele>21.1</ele>
        <time>2011-10-02T08:17:22Z</time>
      </trkpt>
      <trkpt lat="43.55017" lon="7.11876">
        <ele>21.2</ele>
        <time>2011-10-02T08:17:28Z</time>
      </trkpt>
      <trkpt lat="43.55004" lon="7.1187">
        <ele>21.3</ele>
        <time>2011-10-02T08:17:33Z</time>
      </trkpt>
      <trkpt lat="43.54991" lon="7.11864">
        <ele>21.4</ele>
        <time>2011-10-02T08:17:38Z</time>
      </trkpt>
      <trkpt lat="43.54978" lon="7.11856">
        <ele>21.4</ele>
        <time>2011-10-02T08:17:43Z</time>
      </trkpt>
      <trkpt lat="43.54966" lon="7.11847">
        <ele>21.5</ele>
        <time>2011-10-02T08:17:48Z</time>
      </trkpt>
      <trkpt lat="43.54955" lon="7.11836">
        <ele>21.6</ele>
        <time>2011-10-02T08:17:53Z</time>
      </trkpt>
      <trkpt lat="43.5494" lon="7.11829">
        <ele>21.7</ele>
        <time>2011-10-02T08:17:59Z</time>
      </trkpt>
      <trkpt lat="43.54927" lon="7.11834">
        <ele>21.7</ele>
        <time>2011-10-02T08:18:04Z</time>
      </trkpt>
      <trkpt lat="43.54921" lon="7.11855">
        <ele>21.9</ele>
        <time>2011-10-02T08:18:11Z</time>
      </trkpt>
      <trkpt lat="43.54933" lon="7.11869">
        <ele>21.9</ele>
        <time>2011-10-02T08:18:17Z</time>
      </trkpt>
      <trkpt lat="43.54948" lon="7.11883">
        <ele>22</ele>
        <time>2011-10-02T08:18:22Z</time>
      </trkpt>
      <trkpt lat="43.5496" lon="7.11898">
        <ele>22.1</ele>
        <time>2011-10-02T08:18:30Z</time>
      </trkpt>
      <trkpt lat="43.54967" lon="7.11918">
        <ele>22.2</ele>
        <time>2011-10-02T08:18:35Z</time>
      </trkpt>
      <trkpt lat="43.54964" lon="7.11944">
        <ele>22.3</ele>
        <time>2011-10-02T08:18:42Z</time>
      </trkpt>
      <trkpt lat="43.54958" lon="7.11962">
        <ele>22.4</ele>
        <time>2011-10-02T08:18:49Z</time>
      </trkpt>
      <trkpt lat="43.54948" lon="7.11978">
        <ele>22.5</ele>
        <time>2011-10-02T08:18:56Z</time>
      </trkpt>
      <trkpt lat="43.54941" lon="7.11995">
        <ele>22.6</ele>
        <time>2011-10-02T08:19:02Z</time>
      </trkpt>
      <trkpt lat="43.54933" lon="7.12013">
        <ele>22.7</ele>
        <time>2011-10-02T08:19:09Z</time>
      </trkpt>
      <trkpt lat="43.54928" lon="7.12034">
        <ele>22.8</ele>
        <time>2011-10-02T08:19:15Z</time>
      </trkpt>
      <trkpt lat="43.54923" lon="7.12053">
        <ele>22.9</ele>
        <time>2011-10-02T08:19:22Z</time>
      </trkpt>
      <trkpt lat="43.5492" lon="7.12074">
        <ele>23</ele>
        <time>2011-10-02T08:19:28Z</time>
      </trkpt>
      <trkpt lat="43.54914" lon="7.1209">
        <ele>23.1</ele>
        <time>2011-10-02T08:19:33Z</time>
      </trkpt>
      <trkpt lat="43.54904" lon="7.12107">
        <ele>23.1</ele>
        <time>2011-10-02T08:19:37Z</time>
      </trkpt>
      <trkpt lat="43.54898" lon="7.12124">
        <ele>23.2</ele>
        <time>2011-10-02T08:19:44Z</time>
      </trkpt>
      <trkpt lat="43.54892" lon="7.12143">
        <ele>23.3</ele>
        <time>2011-10-02T08:19:49Z</time>
      </trkpt>
      <trkpt lat="43.54889" lon="7.12164">
        <ele>23.4</ele>
        <time>2011-10-02T08:19:55Z</time>
      </trkpt>
      <trkpt lat="43.54883" lon="7.12185">
        <ele>23.5</ele>
        <time>2011-10-02T08:20:01Z</time>
      </trkpt>
      <trkpt lat="43.5488" lon="7.12207">
        <ele>23.6</ele>
        <time>2011-10-02T08:20:07Z</time>
      </trkpt>
      <trkpt lat="43.54879" lon="7.12226">
        <ele>23.7</ele>
        <time>2011-10-02T08:20:12Z</time>
      </trkpt>
      <trkpt lat="43.54879" lon="7.12248">
        <ele>23.7</ele>
        <time>2011-10-02T08:20:17Z</time>
      </trkpt>
      <trkpt lat="43.54887" lon="7.12265">
        <ele>23.8</ele>
        <time>2011-10-02T08:20:22Z</time>
      </trkpt>
      <trkpt lat="43.54895" lon="7.12278">
        <ele>23.9</ele>
        <time>2011-10-02T08:20:27Z</time>
      </trkpt>
      <trkpt lat="43.54908" lon="7.12286">
        <ele>23.9</ele>
        <time>2011-10-02T08:20:28Z</time>
      </trkpt>
      <trkpt lat="43.5492" lon="7.123">
        <ele>24</ele>
        <time>2011-10-02T08:20:36Z</time>
      </trkpt>
      <trkpt lat="43.54929" lon="7.12315">
        <ele>24.1</ele>
        <time>2011-10-02T08:20:40Z</time>
      </trkpt>
      <trkpt lat="43.54939" lon="7.12331">
        <ele>24.2</ele>
        <time>2011-10-02T08:20:47Z</time>
      </trkpt>
      <trkpt lat="43.54949" lon="7.12346">
        <ele>24.3</ele>
        <time>2011-10-02T08:20:53Z</time>
      </trkpt>
      <trkpt lat="43.54961" lon="7.12356">
        <ele>24.4</ele>
        <time>2011-10-02T08:20:58Z</time>
      </trkpt>
      <trkpt lat="43.5497" lon="7.12375">
        <ele>24.4</ele>
        <time>2011-10-02T08:21:04Z</time>
      </trkpt>
      <trkpt lat="43.54976" lon="7.12396">
        <ele>24.5</ele>
        <time>2011-10-02T08:21:09Z</time>
      </trkpt>
      <trkpt lat="43.54986" lon="7.12414">
        <ele>24.6</ele>
        <time>2011-10-02T08:21:15Z</time>
      </trkpt>
      <trkpt lat="43.54989" lon="7.12433">
        <ele>24.7</ele>
        <time>2011-10-02T08:21:22Z</time>
      </trkpt>
      <trkpt lat="43.54993" lon="7.12452">
        <ele>24.8</ele>
        <time>2011-10-02T08:21:28Z</time>
      </trkpt>
      <trkpt lat="43.55002" lon="7.1247">
        <ele>24.9</ele>
        <time>2011-10-02T08:21:34Z</time>
      </trkpt>
      <trkpt lat="43.55012" lon="7.12492">
        <ele>25</ele>
        <time>2011-10-02T08:21:39Z</time>
      </trkpt>
      <trkpt lat="43.5502" lon="7.1251">
        <ele>25.1</ele>
        <time>2011-10-02T08:21:45Z</time>
      </trkpt>
      <trkpt lat="43.55027" lon="7.12527">
        <ele>25.1</ele>
        <time>2011-10-02T08:21:49Z</time>
      </trkpt>
      <trkpt lat="43.55038" lon="7.12546">
        <ele>25.2</ele>
        <time>2011-10-02T08:21:55Z</time>
      </trkpt>
      <trkpt lat="43.55046" lon="7.12562">
        <ele>25.3</ele>
        <time>2011-10-02T08:22:01Z</time>
      </trkpt>
      <trkpt lat="43.55053" lon="7.12579">
        <ele>25.4</ele>
        <time>2011-10-02T08:22:06Z</time>
      </trkpt>
      <trkpt lat="43.5506" lon="7.12596">
        <ele>25.5</ele>
        <time>2011-10-02T08:22:11Z</time>
      </trkpt>
      <trkpt lat="43.55062" lon="7.12615">
        <ele>25.5</ele>
        <time>2011-10-02T08:22:16Z</time>
      </trkpt>
      <trkpt lat="43.55068" lon="7.12635">
        <ele>25.6</ele>
        <time>2011-10-02T08:22:22Z</time>
      </trkpt>
      <trkpt lat="43.55075" lon="7.12651">
        <ele>25.7</ele>
        <time>2011-10-02T08:22:27Z</time>
      </trkpt>
      <trkpt lat="43.55083" lon="7.12675">
        <ele>25.8</ele>
        <time>2011-10-02T08:22:33Z</time>
      </trkpt>
      <trkpt lat="43.55091" lon="7.12693">
        <ele>25.9</ele>
        <time>2011-10-02T08:22:40Z</time>
      </trkpt>
      <trkpt lat="43.55098" lon="7.12709">
        <ele>26</ele>
        <time>2011-10-02T08:22:44Z</time>
      </trkpt>
      <trkpt lat="43.55105" lon="7.12725">
        <ele>26.2</ele>
        <time>2011-10-02T08:22:50Z</time>
      </trkpt>
      <trkpt lat="43.55114" lon="7.12744">
        <ele>26.5</ele>
        <time>2011-10-02T08:22:56Z</time>
      </trkpt>
      <trkpt lat="43.55122" lon="7.12759">
        <ele>26.7</ele>
        <time>2011-10-02T08:23:01Z</time>
      </trkpt>
      <trkpt lat="43.55131" lon="7.12777">
        <ele>26.9</ele>
        <time>2011-10-02T08:23:07Z</time>
      </trkpt>
      <trkpt lat="43.5514" lon="7.12795">
        <ele>27.2</ele>
        <time>2011-10-02T08:23:13Z</time>
      </trkpt>
      <trkpt lat="43.55147" lon="7.1281">
        <ele>27.4</ele>
        <time>2011-10-02T08:23:18Z</time>
      </trkpt>
      <trkpt lat="43.55155" lon="7.12826">
        <ele>27.6</ele>
        <time>2011-10-02T08:23:23Z</time>
      </trkpt>
      <trkpt lat="43.55165" lon="7.12841">
        <ele>27.7</ele>
        <time>2011-10-02T08:23:27Z</time>
      </trkpt>
      <trkpt lat="43.55175" lon="7.12857">
        <ele>28</ele>
        <time>2011-10-02T08:23:34Z</time>
      </trkpt>
      <trkpt lat="43.55186" lon="7.12869">
        <ele>28.2</ele>
        <time>2011-10-02T08:23:39Z</time>
      </trkpt>
      <trkpt lat="43.55198" lon="7.1288">
        <ele>28.4</ele>
        <time>2011-10-02T08:23:44Z</time>
      </trkpt>
      <trkpt lat="43.55209" lon="7.12899">
        <ele>28.6</ele>
        <time>2011-10-02T08:23:49Z</time>
      </trkpt>
      <trkpt lat="43.55212" lon="7.12918">
        <ele>28.8</ele>
        <time>2011-10-02T08:23:55Z</time>
      </trkpt>
      <trkpt lat="43.55214" lon="7.12937">
        <ele>29</ele>
        <time>2011-10-02T08:24:00Z</time>
      </trkpt>
      <trkpt lat="43.55216" lon="7.12957">
        <ele>29.2</ele>
        <time>2011-10-02T08:24:05Z</time>
      </trkpt>
      <trkpt lat="43.55215" lon="7.12977">
        <ele>29.4</ele>
        <time>2011-10-02T08:24:10Z</time>
      </trkpt>
      <trkpt lat="43.55208" lon="7.12996">
        <ele>29.6</ele>
        <time>2011-10-02T08:24:15Z</time>
      </trkpt>
      <trkpt lat="43.55198" lon="7.13016">
        <ele>29.8</ele>
        <time>2011-10-02T08:24:20Z</time>
      </trkpt>
      <trkpt lat="43.55189" lon="7.13031">
        <ele>30.1</ele>
        <time>2011-10-02T08:24:26Z</time>
      </trkpt>
      <trkpt lat="43.55181" lon="7.13047">
        <ele>30.3</ele>
        <time>2011-10-02T08:24:31Z</time>
      </trkpt>
      <trkpt lat="43.55173" lon="7.13062">
        <ele>30.5</ele>
        <time>2011-10-02T08:24:36Z</time>
      </trkpt>
      <trkpt lat="43.55161" lon="7.13076">
        <ele>30.7</ele>
        <time>2011-10-02T08:24:42Z</time>
      </trkpt>
      <trkpt lat="43.55147" lon="7.13086">
        <ele>31</ele>
        <time>2011-10-02T08:24:48Z</time>
      </trkpt>
      <trkpt lat="43.55133" lon="7.13096">
        <ele>31.2</ele>
        <time>2011-10-02T08:24:53Z</time>
      </trkpt>
      <trkpt lat="43.55121" lon="7.13107">
        <ele>31.4</ele>
        <time>2011-10-02T08:25:00Z</time>
      </trkpt>
      <trkpt lat="43.55109" lon="7.13119">
        <ele>31.7</ele>
        <time>2011-10-02T08:25:06Z</time>
      </trkpt>
      <trkpt lat="43.55095" lon="7.13128">
        <ele>31.9</ele>
        <time>2011-10-02T08:25:11Z</time>
      </trkpt>
      <trkpt lat="43.55081" lon="7.13138">
        <ele>32.2</ele>
        <time>2011-10-02T08:25:18Z</time>
      </trkpt>
      <trkpt lat="43.55069" lon="7.13149">
        <ele>32.4</ele>
        <time>2011-10-02T08:25:24Z</time>
      </trkpt>
      <trkpt lat="43.5506" lon="7.13165">
        <ele>32.6</ele>
        <time>2011-10-02T08:25:30Z</time>
      </trkpt>
      <trkpt lat="43.55058" lon="7.13185">
        <ele>32.9</ele>
        <time>2011-10-02T08:25:36Z</time>
      </trkpt>
      <trkpt lat="43.55059" lon="7.13209">
        <ele>33.1</ele>
        <time>2011-10-02T08:25:41Z</time>
      </trkpt>
      <trkpt lat="43.5506" lon="7.13229">
        <ele>33.3</ele>
        <time>2011-10-02T08:25:47Z</time>
      </trkpt>
      <trkpt lat="43.55062" lon="7.13248">
        <ele>33.5</ele>
        <time>2011-10-02T08:25:52Z</time>
      </trkpt>
      <trkpt lat="43.55066" lon="7.13267">
        <ele>33.7</ele>
        <time>2011-10-02T08:25:56Z</time>
      </trkpt>
      <trkpt lat="43.55074" lon="7.13285">
        <ele>33.9</ele>
        <time>2011-10-02T08:26:02Z</time>
      </trkpt>
      <trkpt lat="43.55076" lon="7.13307">
        <ele>34.1</ele>
        <time>2011-10-02T08:26:07Z</time>
      </trkpt>
      <trkpt lat="43.55078" lon="7.13327">
        <ele>34.3</ele>
        <time>2011-10-02T08:26:12Z</time>
      </trkpt>
      <trkpt lat="43.55078" lon="7.13347">
        <ele>34.5</ele>
        <time>2011-10-02T08:26:17Z</time>
      </trkpt>
      <trkpt lat="43.55079" lon="7.13368">
        <ele>34.7</ele>
        <time>2011-10-02T08:26:22Z</time>
      </trkpt>
      <trkpt lat="43.55084" lon="7.13386">
        <ele>34.9</ele>
        <time>2011-10-02T08:26:27Z</time>
      </trkpt>
      <trkpt lat="43.55097" lon="7.13403">
        <ele>35.1</ele>
        <time>2011-10-02T08:26:32Z</time>
      </trkpt>
      <trkpt lat="43.55109" lon="7.13417">
        <ele>35.4</ele>
        <time>2011-10-02T08:26:38Z</time>
      </trkpt>
      <trkpt lat="43.5512" lon="7.13431">
        <ele>35.6</ele>
        <time>2011-10-02T08:26:43Z</time>
      </trkpt>
      <trkpt lat="43.55127" lon="7.13446">
        <ele>35.7</ele>
        <time>2011-10-02T08:26:46Z</time>
      </trkpt>
      <trkpt lat="43.55131" lon="7.13467">
        <ele>35.9</ele>
        <time>2011-10-02T08:26:52Z</time>
      </trkpt>
      <trkpt lat="43.55142" lon="7.13481">
        <ele>35.9</ele>
        <time>2011-10-02T08:26:57Z</time>
      </trkpt>
      <trkpt lat="43.55155" lon="7.13492">
        <ele>35.6</ele>
        <time>2011-10-02T08:27:02Z</time>
      </trkpt>
      <trkpt lat="43.55171" lon="7.135">
        <ele>35.3</ele>
        <time>2011-10-02T08:27:07Z</time>
      </trkpt>
      <trkpt lat="43.55186" lon="7.13509">
        <ele>35</ele>
        <time>2011-10-02T08:27:12Z</time>
      </trkpt>
      <trkpt lat="43.55199" lon="7.13516">
        <ele>34.7</ele>
        <time>2011-10-02T08:27:16Z</time>
      </trkpt>
      <trkpt lat="43.55213" lon="7.13523">
        <ele>34.5</ele>
        <time>2011-10-02T08:27:20Z</time>
      </trkpt>
      <trkpt lat="43.55225" lon="7.13531">
        <ele>34.2</ele>
        <time>2011-10-02T08:27:24Z</time>
      </trkpt>
      <trkpt lat="43.55238" lon="7.13537">
        <ele>34</ele>
        <time>2011-10-02T08:27:28Z</time>
      </trkpt>
      <trkpt lat="43.55251" lon="7.13545">
        <ele>33.7</ele>
        <time>2011-10-02T08:27:32Z</time>
      </trkpt>
      <trkpt lat="43.55266" lon="7.13553">
        <ele>33.4</ele>
        <time>2011-10-02T08:27:37Z</time>
      </trkpt>
      <trkpt lat="43.55279" lon="7.13558">
        <ele>33.2</ele>
        <time>2011-10-02T08:27:41Z</time>
      </trkpt>
      <trkpt lat="43.55295" lon="7.13565">
        <ele>32.9</ele>
        <time>2011-10-02T08:27:46Z</time>
      </trkpt>
      <trkpt lat="43.55308" lon="7.13573">
        <ele>32.6</ele>
        <time>2011-10-02T08:27:50Z</time>
      </trkpt>
      <trkpt lat="43.55323" lon="7.13581">
        <ele>32.3</ele>
        <time>2011-10-02T08:27:55Z</time>
      </trkpt>
      <trkpt lat="43.55337" lon="7.13588">
        <ele>32</ele>
        <time>2011-10-02T08:28:00Z</time>
      </trkpt>
      <trkpt lat="43.55352" lon="7.13596">
        <ele>31.7</ele>
        <time>2011-10-02T08:28:05Z</time>
      </trkpt>
      <trkpt lat="43.55367" lon="7.13605">
        <ele>31.4</ele>
        <time>2011-10-02T08:28:10Z</time>
      </trkpt>
      <trkpt lat="43.5538" lon="7.13613">
        <ele>31.1</ele>
        <time>2011-10-02T08:28:14Z</time>
      </trkpt>
      <trkpt lat="43.55393" lon="7.1362">
        <ele>30.8</ele>
        <time>2011-10-02T08:28:19Z</time>
      </trkpt>
      <trkpt lat="43.55407" lon="7.13624">
        <ele>30.5</ele>
        <time>2011-10-02T08:28:24Z</time>
      </trkpt>
      <trkpt lat="43.55418" lon="7.1361">
        <ele>30.2</ele>
        <time>2011-10-02T08:28:30Z</time>
      </trkpt>
      <trkpt lat="43.55427" lon="7.13589">
        <ele>29.8</ele>
        <time>2011-10-02T08:28:35Z</time>
      </trkpt>
      <trkpt lat="43.55434" lon="7.13571">
        <ele>29.5</ele>
        <time>2011-10-02T08:28:41Z</time>
      </trkpt>
      <trkpt lat="43.55443" lon="7.13554">
        <ele>29.2</ele>
        <time>2011-10-02T08:28:46Z</time>
      </trkpt>
      <trkpt lat="43.55454" lon="7.13542">
        <ele>28.9</ele>
        <time>2011-10-02T08:28:51Z</time>
      </trkpt>
      <trkpt lat="43.55467" lon="7.13532">
        <ele>28.5</ele>
        <time>2011-10-02T08:28:56Z</time>
      </trkpt>
      <trkpt lat="43.55481" lon="7.13521">
        <ele>28.2</ele>
        <time>2011-10-02T08:29:01Z</time>
      </trkpt>
      <trkpt lat="43.55489" lon="7.13503">
        <ele>27.9</ele>
        <time>2011-10-02T08:29:06Z</time>
      </trkpt>
      <trkpt lat="43.55499" lon="7.13481">
        <ele>27.6</ele>
        <time>2011-10-02T08:29:11Z</time>
      </trkpt>
      <trkpt lat="43.55507" lon="7.13464">
        <ele>27.2</ele>
        <time>2011-10-02T08:29:18Z</time>
      </trkpt>
      <trkpt lat="43.55513" lon="7.13444">
        <ele>26.8</ele>
        <time>2011-10-02T08:29:24Z</time>
      </trkpt>
      <trkpt lat="43.55516" lon="7.13425">
        <ele>26.5</ele>
        <time>2011-10-02T08:29:29Z</time>
      </trkpt>
      <trkpt lat="43.55516" lon="7.13405">
        <ele>26.1</ele>
        <time>2011-10-02T08:29:35Z</time>
      </trkpt>
      <trkpt lat="43.55513" lon="7.13385">
        <ele>25.8</ele>
        <time>2011-10-02T08:29:40Z</time>
      </trkpt>
      <trkpt lat="43.55512" lon="7.13366">
        <ele>25.6</ele>
        <time>2011-10-02T08:29:44Z</time>
      </trkpt>
      <trkpt lat="43.55519" lon="7.13352">
        <ele>25.6</ele>
        <time>2011-10-02T08:29:50Z</time>
      </trkpt>
      <trkpt lat="43.55533" lon="7.13357">
        <ele>25.5</ele>
        <time>2011-10-02T08:29:55Z</time>
      </trkpt>
      <trkpt lat="43.55546" lon="7.13369">
        <ele>25.4</ele>
        <time>2011-10-02T08:30:00Z</time>
      </trkpt>
      <trkpt lat="43.5556" lon="7.13381">
        <ele>25.4</ele>
        <time>2011-10-02T08:30:05Z</time>
      </trkpt>
      <trkpt lat="43.55572" lon="7.13394">
        <ele>25.3</ele>
        <time>2011-10-02T08:30:10Z</time>
      </trkpt>
      <trkpt lat="43.55584" lon="7.13405">
        <ele>25.3</ele>
        <time>2011-10-02T08:30:15Z</time>
      </trkpt>
      <trkpt lat="43.55595" lon="7.13416">
        <ele>25.2</ele>
        <time>2011-10-02T08:30:20Z</time>
      </trkpt>
      <trkpt lat="43.55607" lon="7.13425">
        <ele>25.2</ele>
        <time>2011-10-02T08:30:25Z</time>
      </trkpt>
      <trkpt lat="43.55618" lon="7.13438">
        <ele>25.1</ele>
        <time>2011-10-02T08:30:30Z</time>
      </trkpt>
      <trkpt lat="43.5563" lon="7.13449">
        <ele>25.1</ele>
        <time>2011-10-02T08:30:35Z</time>
      </trkpt>
      <trkpt lat="43.55643" lon="7.13462">
        <ele>25</ele>
        <time>2011-10-02T08:30:41Z</time>
      </trkpt>
      <trkpt lat="43.55656" lon="7.13471">
        <ele>24.9</ele>
        <time>2011-10-02T08:30:46Z</time>
      </trkpt>
      <trkpt lat="43.55673" lon="7.13477">
        <ele>24.9</ele>
        <time>2011-10-02T08:30:52Z</time>
      </trkpt>
      <trkpt lat="43.5569" lon="7.13478">
        <ele>24.8</ele>
        <time>2011-10-02T08:30:59Z</time>
      </trkpt>
      <trkpt lat="43.55706" lon="7.13477">
        <ele>24.7</ele>
        <time>2011-10-02T08:31:05Z</time>
      </trkpt>
      <trkpt lat="43.55722" lon="7.13477">
        <ele>24.7</ele>
        <time>2011-10-02T08:31:11Z</time>
      </trkpt>
      <trkpt lat="43.55736" lon="7.13477">
        <ele>24.6</ele>
        <time>2011-10-02T08:31:16Z</time>
      </trkpt>
      <trkpt lat="43.5575" lon="7.13477">
        <ele>24.6</ele>
        <time>2011-10-02T08:31:21Z</time>
      </trkpt>
      <trkpt lat="43.55765" lon="7.13477">
        <ele>24.5</ele>
        <time>2011-10-02T08:31:25Z</time>
      </trkpt>
      <trkpt lat="43.55779" lon="7.13476">
        <ele>24.5</ele>
        <time>2011-10-02T08:31:30Z</time>
      </trkpt>
      <trkpt lat="43.55794" lon="7.13478">
        <ele>24.4</ele>
        <time>2011-10-02T08:31:36Z</time>
      </trkpt>
      <trkpt lat="43.55808" lon="7.1348">
        <ele>24.3</ele>
        <time>2011-10-02T08:31:41Z</time>
      </trkpt>
      <trkpt lat="43.55822" lon="7.13487">
        <ele>24.3</ele>
        <time>2011-10-02T08:31:46Z</time>
      </trkpt>
      <trkpt lat="43.55836" lon="7.13495">
        <ele>24.2</ele>
        <time>2011-10-02T08:31:51Z</time>
      </trkpt>
      <trkpt lat="43.55849" lon="7.13506">
        <ele>24.2</ele>
        <time>2011-10-02T08:31:56Z</time>
      </trkpt>
      <trkpt lat="43.55862" lon="7.13517">
        <ele>24.1</ele>
        <time>2011-10-02T08:32:01Z</time>
      </trkpt>
      <trkpt lat="43.55874" lon="7.13526">
        <ele>24.1</ele>
        <time>2011-10-02T08:32:06Z</time>
      </trkpt>
      <trkpt lat="43.55887" lon="7.13536">
        <ele>24</ele>
        <time>2011-10-02T08:32:11Z</time>
      </trkpt>
      <trkpt lat="43.55899" lon="7.13544">
        <ele>23.9</ele>
        <time>2011-10-02T08:32:16Z</time>
      </trkpt>
      <trkpt lat="43.55913" lon="7.13553">
        <ele>23.9</ele>
        <time>2011-10-02T08:32:21Z</time>
      </trkpt>
      <trkpt lat="43.55925" lon="7.13562">
        <ele>23.8</ele>
        <time>2011-10-02T08:32:25Z</time>
      </trkpt>
      <trkpt lat="43.55939" lon="7.13573">
        <ele>23.8</ele>
        <time>2011-10-02T08:32:32Z</time>
      </trkpt>
      <trkpt lat="43.55953" lon="7.13583">
        <ele>23.7</ele>
        <time>2011-10-02T08:32:38Z</time>
      </trkpt>
      <trkpt lat="43.55965" lon="7.13592">
        <ele>23.7</ele>
        <time>2011-10-02T08:32:42Z</time>
      </trkpt>
      <trkpt lat="43.55977" lon="7.13601">
        <ele>23.6</ele>
        <time>2011-10-02T08:32:48Z</time>
      </trkpt>
      <trkpt lat="43.5599" lon="7.13609">
        <ele>23.5</ele>
        <time>2011-10-02T08:32:53Z</time>
      </trkpt>
      <trkpt lat="43.56003" lon="7.13619">
        <ele>23.5</ele>
        <time>2011-10-02T08:32:58Z</time>
      </trkpt>
      <trkpt lat="43.56019" lon="7.13631">
        <ele>23.4</ele>
        <time>2011-10-02T08:33:03Z</time>
      </trkpt>
      <trkpt lat="43.56033" lon="7.13643">
        <ele>23.4</ele>
        <time>2011-10-02T08:33:09Z</time>
      </trkpt>
      <trkpt lat="43.56046" lon="7.13652">
        <ele>23.3</ele>
        <time>2011-10-02T08:33:15Z</time>
      </trkpt>
      <trkpt lat="43.56061" lon="7.13664">
        <ele>23.2</ele>
        <time>2011-10-02T08:33:20Z</time>
      </trkpt>
      <trkpt lat="43.56075" lon="7.13676">
        <ele>23.2</ele>
        <time>2011-10-02T08:33:26Z</time>
      </trkpt>
      <trkpt lat="43.56086" lon="7.13689">
        <ele>23.1</ele>
        <time>2011-10-02T08:33:32Z</time>
      </trkpt>
      <trkpt lat="43.56099" lon="7.13704">
        <ele>23</ele>
        <time>2011-10-02T08:33:37Z</time>
      </trkpt>
      <trkpt lat="43.56109" lon="7.13718">
        <ele>23</ele>
        <time>2011-10-02T08:33:42Z</time>
      </trkpt>
      <trkpt lat="43.56118" lon="7.13737">
        <ele>22.9</ele>
        <time>2011-10-02T08:33:48Z</time>
      </trkpt>
      <trkpt lat="43.56127" lon="7.13753">
        <ele>22.9</ele>
        <time>2011-10-02T08:33:54Z</time>
      </trkpt>
      <trkpt lat="43.56135" lon="7.13768">
        <ele>22.8</ele>
        <time>2011-10-02T08:33:59Z</time>
      </trkpt>
      <trkpt lat="43.56145" lon="7.13781">
        <ele>22.7</ele>
        <time>2011-10-02T08:34:04Z</time>
      </trkpt>
      <trkpt lat="43.56158" lon="7.13789">
        <ele>22.7</ele>
        <time>2011-10-02T08:34:10Z</time>
      </trkpt>
      <trkpt lat="43.56173" lon="7.13795">
        <ele>22.6</ele>
        <time>2011-10-02T08:34:16Z</time>
      </trkpt>
      <trkpt lat="43.56188" lon="7.13804">
        <ele>22.5</ele>
        <time>2011-10-02T08:34:22Z</time>
      </trkpt>
      <trkpt lat="43.562" lon="7.13815">
        <ele>22.5</ele>
        <time>2011-10-02T08:34:25Z</time>
      </trkpt>
      <trkpt lat="43.56214" lon="7.13826">
        <ele>22.4</ele>
        <time>2011-10-02T08:34:31Z</time>
      </trkpt>
      <trkpt lat="43.56227" lon="7.13839">
        <ele>22.4</ele>
        <time>2011-10-02T08:34:38Z</time>
      </trkpt>
      <trkpt lat="43.5624" lon="7.13848">
        <ele>22.1</ele>
        <time>2011-10-02T08:34:58Z</time>
      </trkpt>
      <trkpt lat="43.56253" lon="7.13855">
        <ele>22.1</ele>
        <time>2011-10-02T08:35:03Z</time>
      </trkpt>
      <trkpt lat="43.56266" lon="7.13863">
        <ele>22</ele>
        <time>2011-10-02T08:35:08Z</time>
      </trkpt>
      <trkpt lat="43.5628" lon="7.13869">
        <ele>22</ele>
        <time>2011-10-02T08:35:13Z</time>
      </trkpt>
      <trkpt lat="43.56294" lon="7.13872">
        <ele>21.9</ele>
        <time>2011-10-02T08:35:18Z</time>
      </trkpt>
      <trkpt lat="43.56309" lon="7.13871">
        <ele>21.9</ele>
        <time>2011-10-02T08:35:24Z</time>
      </trkpt>
      <trkpt lat="43.56322" lon="7.13865">
        <ele>21.8</ele>
        <time>2011-10-02T08:35:30Z</time>
      </trkpt>
      <trkpt lat="43.56337" lon="7.13856">
        <ele>21.7</ele>
        <time>2011-10-02T08:35:36Z</time>
      </trkpt>
      <trkpt lat="43.5635" lon="7.13849">
        <ele>21.7</ele>
        <time>2011-10-02T08:35:40Z</time>
      </trkpt>
      <trkpt lat="43.56362" lon="7.13841">
        <ele>21.6</ele>
        <time>2011-10-02T08:35:46Z</time>
      </trkpt>
      <trkpt lat="43.56375" lon="7.13833">
        <ele>21.6</ele>
        <time>2011-10-02T08:35:51Z</time>
      </trkpt>
      <trkpt lat="43.56388" lon="7.13824">
        <ele>21.5</ele>
        <time>2011-10-02T08:35:56Z</time>
      </trkpt>
      <trkpt lat="43.564" lon="7.13815">
        <ele>21.5</ele>
        <time>2011-10-02T08:36:00Z</time>
      </trkpt>
      <trkpt lat="43.56413" lon="7.13807">
        <ele>21.4</ele>
        <time>2011-10-02T08:36:06Z</time>
      </trkpt>
      <trkpt lat="43.56425" lon="7.13796">
        <ele>21.3</ele>
        <time>2011-10-02T08:36:11Z</time>
      </trkpt>
      <trkpt lat="43.56438" lon="7.13788">
        <ele>21.3</ele>
        <time>2011-10-02T08:36:18Z</time>
      </trkpt>
      <trkpt lat="43.56452" lon="7.13781">
        <ele>21.2</ele>
        <time>2011-10-02T08:36:24Z</time>
      </trkpt>
      <trkpt lat="43.56465" lon="7.13771">
        <ele>21.1</ele>
        <time>2011-10-02T08:36:30Z</time>
      </trkpt>
      <trkpt lat="43.56478" lon="7.1376">
        <ele>21.1</ele>
        <time>2011-10-02T08:36:35Z</time>
      </trkpt>
      <trkpt lat="43.56492" lon="7.13753">
        <ele>21</ele>
        <time>2011-10-02T08:36:42Z</time>
      </trkpt>
      <trkpt lat="43.56505" lon="7.13745">
        <ele>20.9</ele>
        <time>2011-10-02T08:36:48Z</time>
      </trkpt>
      <trkpt lat="43.56519" lon="7.13736">
        <ele>20.9</ele>
        <time>2011-10-02T08:36:54Z</time>
      </trkpt>
      <trkpt lat="43.56533" lon="7.13727">
        <ele>20.8</ele>
        <time>2011-10-02T08:37:00Z</time>
      </trkpt>
      <trkpt lat="43.56547" lon="7.13722">
        <ele>20.7</ele>
        <time>2011-10-02T08:37:06Z</time>
      </trkpt>
      <trkpt lat="43.56563" lon="7.1372">
        <ele>20.7</ele>
        <time>2011-10-02T08:37:12Z</time>
      </trkpt>
      <trkpt lat="43.56577" lon="7.1372">
        <ele>20.6</ele>
        <time>2011-10-02T08:37:17Z</time>
      </trkpt>
      <trkpt lat="43.5659" lon="7.13721">
        <ele>20.6</ele>
        <time>2011-10-02T08:37:21Z</time>
      </trkpt>
      <trkpt lat="43.56604" lon="7.13725">
        <ele>20.5</ele>
        <time>2011-10-02T08:37:27Z</time>
      </trkpt>
      <trkpt lat="43.5662" lon="7.13728">
        <ele>20.4</ele>
        <time>2011-10-02T08:37:33Z</time>
      </trkpt>
      <trkpt lat="43.56633" lon="7.13732">
        <ele>20.4</ele>
        <time>2011-10-02T08:37:39Z</time>
      </trkpt>
      <trkpt lat="43.56648" lon="7.13736">
        <ele>20.3</ele>
        <time>2011-10-02T08:37:45Z</time>
      </trkpt>
      <trkpt lat="43.56662" lon="7.13739">
        <ele>20.2</ele>
        <time>2011-10-02T08:37:50Z</time>
      </trkpt>
      <trkpt lat="43.56676" lon="7.13744">
        <ele>20.2</ele>
        <time>2011-10-02T08:37:55Z</time>
      </trkpt>
      <trkpt lat="43.5669" lon="7.13748">
        <ele>20.1</ele>
        <time>2011-10-02T08:38:00Z</time>
      </trkpt>
      <trkpt lat="43.56704" lon="7.13751">
        <ele>20.1</ele>
        <time>2011-10-02T08:38:05Z</time>
      </trkpt>
      <trkpt lat="43.56717" lon="7.13756">
        <ele>20</ele>
        <time>2011-10-02T08:38:10Z</time>
      </trkpt>
      <trkpt lat="43.56732" lon="7.13762">
        <ele>19.9</ele>
        <time>2011-10-02T08:38:16Z</time>
      </trkpt>
      <trkpt lat="43.56744" lon="7.13771">
        <ele>19.9</ele>
        <time>2011-10-02T08:38:21Z</time>
      </trkpt>
      <trkpt lat="43.56758" lon="7.13787">
        <ele>19.8</ele>
        <time>2011-10-02T08:38:26Z</time>
      </trkpt>
      <trkpt lat="43.5677" lon="7.13799">
        <ele>19.8</ele>
        <time>2011-10-02T08:38:32Z</time>
      </trkpt>
      <trkpt lat="43.56782" lon="7.13811">
        <ele>19.7</ele>
        <time>2011-10-02T08:38:37Z</time>
      </trkpt>
      <trkpt lat="43.56794" lon="7.13822">
        <ele>19.7</ele>
        <time>2011-10-02T08:38:42Z</time>
      </trkpt>
      <trkpt lat="43.56806" lon="7.13833">
        <ele>19.6</ele>
        <time>2011-10-02T08:38:47Z</time>
      </trkpt>
      <trkpt lat="43.56821" lon="7.13848">
        <ele>19.6</ele>
        <time>2011-10-02T08:38:52Z</time>
      </trkpt>
      <trkpt lat="43.56835" lon="7.13861">
        <ele>19.5</ele>
        <time>2011-10-02T08:38:58Z</time>
      </trkpt>
      <trkpt lat="43.56846" lon="7.13873">
        <ele>19.4</ele>
        <time>2011-10-02T08:39:04Z</time>
      </trkpt>
      <trkpt lat="43.56857" lon="7.13887">
        <ele>19.4</ele>
        <time>2011-10-02T08:39:09Z</time>
      </trkpt>
      <trkpt lat="43.56864" lon="7.13904">
        <ele>19.3</ele>
        <time>2011-10-02T08:39:13Z</time>
      </trkpt>
      <trkpt lat="43.5687" lon="7.13922">
        <ele>19.3</ele>
        <time>2011-10-02T08:39:19Z</time>
      </trkpt>
      <trkpt lat="43.56877" lon="7.1394">
        <ele>19.2</ele>
        <time>2011-10-02T08:39:24Z</time>
      </trkpt>
      <trkpt lat="43.56883" lon="7.13958">
        <ele>19.1</ele>
        <time>2011-10-02T08:39:29Z</time>
      </trkpt>
      <trkpt lat="43.56889" lon="7.13975">
        <ele>19.1</ele>
        <time>2011-10-02T08:39:34Z</time>
      </trkpt>
      <trkpt lat="43.569" lon="7.13991">
        <ele>19</ele>
        <time>2011-10-02T08:39:40Z</time>
      </trkpt>
      <trkpt lat="43.56912" lon="7.14">
        <ele>19</ele>
        <time>2011-10-02T08:39:45Z</time>
      </trkpt>
      <trkpt lat="43.56925" lon="7.14006">
        <ele>18.9</ele>
        <time>2011-10-02T08:39:50Z</time>
      </trkpt>
      <trkpt lat="43.56941" lon="7.14006">
        <ele>18.9</ele>
        <time>2011-10-02T08:39:55Z</time>
      </trkpt>
      <trkpt lat="43.56954" lon="7.13997">
        <ele>18.8</ele>
        <time>2011-10-02T08:40:02Z</time>
      </trkpt>
      <trkpt lat="43.56964" lon="7.13983">
        <ele>18.7</ele>
        <time>2011-10-02T08:40:07Z</time>
      </trkpt>
      <trkpt lat="43.56972" lon="7.13968">
        <ele>18.7</ele>
        <time>2011-10-02T08:40:12Z</time>
      </trkpt>
      <trkpt lat="43.56979" lon="7.13948">
        <ele>18.6</ele>
        <time>2011-10-02T08:40:18Z</time>
      </trkpt>
      <trkpt lat="43.5698" lon="7.13928">
        <ele>18.6</ele>
        <time>2011-10-02T08:40:22Z</time>
      </trkpt>
      <trkpt lat="43.56981" lon="7.13909">
        <ele>18.5</ele>
        <time>2011-10-02T08:40:28Z</time>
      </trkpt>
      <trkpt lat="43.56982" lon="7.13888">
        <ele>18.4</ele>
        <time>2011-10-02T08:40:34Z</time>
      </trkpt>
      <trkpt lat="43.56978" lon="7.13869">
        <ele>18.4</ele>
        <time>2011-10-02T08:40:40Z</time>
      </trkpt>
      <trkpt lat="43.56975" lon="7.13849">
        <ele>18.3</ele>
        <time>2011-10-02T08:40:46Z</time>
      </trkpt>
      <trkpt lat="43.56972" lon="7.13829">
        <ele>18.2</ele>
        <time>2011-10-02T08:40:51Z</time>
      </trkpt>
      <trkpt lat="43.56971" lon="7.13808">
        <ele>18.2</ele>
        <time>2011-10-02T08:40:57Z</time>
      </trkpt>
      <trkpt lat="43.56966" lon="7.13786">
        <ele>18.1</ele>
        <time>2011-10-02T08:41:03Z</time>
      </trkpt>
      <trkpt lat="43.56963" lon="7.13766">
        <ele>18</ele>
        <time>2011-10-02T08:41:10Z</time>
      </trkpt>
      <trkpt lat="43.56963" lon="7.13744">
        <ele>18</ele>
        <time>2011-10-02T08:41:16Z</time>
      </trkpt>
      <trkpt lat="43.56966" lon="7.13724">
        <ele>17.9</ele>
        <time>2011-10-02T08:41:22Z</time>
      </trkpt>
      <trkpt lat="43.56971" lon="7.13705">
        <ele>17.8</ele>
        <time>2011-10-02T08:41:28Z</time>
      </trkpt>
      <trkpt lat="43.56975" lon="7.13687">
        <ele>17.8</ele>
        <time>2011-10-02T08:41:33Z</time>
      </trkpt>
      <trkpt lat="43.56978" lon="7.13663">
        <ele>17.7</ele>
        <time>2011-10-02T08:41:39Z</time>
      </trkpt>
      <trkpt lat="43.56982" lon="7.13642">
        <ele>17.6</ele>
        <time>2011-10-02T08:41:46Z</time>
      </trkpt>
      <trkpt lat="43.56983" lon="7.13624">
        <ele>17.6</ele>
        <time>2011-10-02T08:41:51Z</time>
      </trkpt>
      <trkpt lat="43.56979" lon="7.13603">
        <ele>17.5</ele>
        <time>2011-10-02T08:41:56Z</time>
      </trkpt>
      <trkpt lat="43.56978" lon="7.13583">
        <ele>17.5</ele>
        <time>2011-10-02T08:42:00Z</time>
      </trkpt>
      <trkpt lat="43.56976" lon="7.13563">
        <ele>17.4</ele>
        <time>2011-10-02T08:42:06Z</time>
      </trkpt>
      <trkpt lat="43.56975" lon="7.13544">
        <ele>17.3</ele>
        <time>2011-10-02T08:42:11Z</time>
      </trkpt>
      <trkpt lat="43.56974" lon="7.13522">
        <ele>17.3</ele>
        <time>2011-10-02T08:42:17Z</time>
      </trkpt>
      <trkpt lat="43.56972" lon="7.13502">
        <ele>17.2</ele>
        <time>2011-10-02T08:42:23Z</time>
      </trkpt>
      <trkpt lat="43.56973" lon="7.13482">
        <ele>17.2</ele>
        <time>2011-10-02T08:42:28Z</time>
      </trkpt>
      <trkpt lat="43.56973" lon="7.13463">
        <ele>17.1</ele>
        <time>2011-10-02T08:42:33Z</time>
      </trkpt>
      <trkpt lat="43.56975" lon="7.13441">
        <ele>17</ele>
        <time>2011-10-02T08:42:39Z</time>
      </trkpt>
      <trkpt lat="43.56978" lon="7.13422">
        <ele>17</ele>
        <time>2011-10-02T08:42:44Z</time>
      </trkpt>
      <trkpt lat="43.56986" lon="7.13407">
        <ele>16.9</ele>
        <time>2011-10-02T08:42:49Z</time>
      </trkpt>
      <trkpt lat="43.56991" lon="7.13387">
        <ele>16.9</ele>
        <time>2011-10-02T08:42:55Z</time>
      </trkpt>
      <trkpt lat="43.56994" lon="7.13367">
        <ele>16.8</ele>
        <time>2011-10-02T08:43:01Z</time>
      </trkpt>
      <trkpt lat="43.56995" lon="7.13348">
        <ele>16.7</ele>
        <time>2011-10-02T08:43:06Z</time>
      </trkpt>
      <trkpt lat="43.56991" lon="7.13329">
        <ele>16.7</ele>
        <time>2011-10-02T08:43:12Z</time>
      </trkpt>
      <trkpt lat="43.56982" lon="7.13311">
        <ele>16.6</ele>
        <time>2011-10-02T08:43:18Z</time>
      </trkpt>
      <trkpt lat="43.56972" lon="7.13295">
        <ele>16.5</ele>
        <time>2011-10-02T08:43:24Z</time>
      </trkpt>
      <trkpt lat="43.56962" lon="7.1328">
        <ele>16.5</ele>
        <time>2011-10-02T08:43:29Z</time>
      </trkpt>
      <trkpt lat="43.56952" lon="7.13264">
        <ele>16.4</ele>
        <time>2011-10-02T08:43:36Z</time>
      </trkpt>
      <trkpt lat="43.56942" lon="7.1325">
        <ele>16.3</ele>
        <time>2011-10-02T08:43:41Z</time>
      </trkpt>
      <trkpt lat="43.56935" lon="7.13231">
        <ele>16.3</ele>
        <time>2011-10-02T08:43:46Z</time>
      </trkpt>
      <trkpt lat="43.56926" lon="7.13215">
        <ele>16.2</ele>
        <time>2011-10-02T08:43:51Z</time>
      </trkpt>
      <trkpt lat="43.56915" lon="7.13201">
        <ele>16.2</ele>
        <time>2011-10-02T08:43:56Z</time>
      </trkpt>
      <trkpt lat="43.56901" lon="7.1319">
        <ele>16.1</ele>
        <time>2011-10-02T08:44:01Z</time>
      </trkpt>
      <trkpt lat="43.56889" lon="7.13175">
        <ele>16.1</ele>
        <time>2011-10-02T08:44:07Z</time>
      </trkpt>
      <trkpt lat="43.56882" lon="7.13159">
        <ele>16</ele>
        <time>2011-10-02T08:44:12Z</time>
      </trkpt>
      <trkpt lat="43.56881" lon="7.13138">
        <ele>15.9</ele>
        <time>2011-10-02T08:44:17Z</time>
      </trkpt>
      <trkpt lat="43.56884" lon="7.13118">
        <ele>15.9</ele>
        <time>2011-10-02T08:44:22Z</time>
      </trkpt>
      <trkpt lat="43.56887" lon="7.13097">
        <ele>15.8</ele>
        <time>2011-10-02T08:44:27Z</time>
      </trkpt>
      <trkpt lat="43.56892" lon="7.13078">
        <ele>15.8</ele>
        <time>2011-10-02T08:44:32Z</time>
      </trkpt>
      <trkpt lat="43.56899" lon="7.1306">
        <ele>15.7</ele>
        <time>2011-10-02T08:44:37Z</time>
      </trkpt>
      <trkpt lat="43.56901" lon="7.13054">
        <ele>15.7</ele>
        <time>2011-10-02T08:44:39Z</time>
      </trkpt>
      <trkpt lat="43.56888" lon="7.13044">
        <ele>15.6</ele>
        <time>2011-10-02T08:44:44Z</time>
      </trkpt>
      <trkpt lat="43.56874" lon="7.13033">
        <ele>15.6</ele>
        <time>2011-10-02T08:44:50Z</time>
      </trkpt>
      <trkpt lat="43.5686" lon="7.13023">
        <ele>15.8</ele>
        <time>2011-10-02T08:44:57Z</time>
      </trkpt>
      <trkpt lat="43.56848" lon="7.13013">
        <ele>16</ele>
        <time>2011-10-02T08:45:02Z</time>
      </trkpt>
      <trkpt lat="43.56835" lon="7.13">
        <ele>16.2</ele>
        <time>2011-10-02T08:45:08Z</time>
      </trkpt>
      <trkpt lat="43.5682" lon="7.12988">
        <ele>16.5</ele>
        <time>2011-10-02T08:45:14Z</time>
      </trkpt>
      <trkpt lat="43.56808" lon="7.12979">
        <ele>16.7</ele>
        <time>2011-10-02T08:45:20Z</time>
      </trkpt>
      <trkpt lat="43.56795" lon="7.12968">
        <ele>16.9</ele>
        <time>2011-10-02T08:45:26Z</time>
      </trkpt>
      <trkpt lat="43.56782" lon="7.12957">
        <ele>17.1</ele>
        <time>2011-10-02T08:45:32Z</time>
      </trkpt>
      <trkpt lat="43.56766" lon="7.12945">
        <ele>17.3</ele>
        <time>2011-10-02T08:45:38Z</time>
      </trkpt>
      <trkpt lat="43.56751" lon="7.12931">
        <ele>17.6</ele>
        <time>2011-10-02T08:45:45Z</time>
      </trkpt>
      <trkpt lat="43.56738" lon="7.12919">
        <ele>17.9</ele>
        <time>2011-10-02T08:45:52Z</time>
      </trkpt>
      <trkpt lat="43.56724" lon="7.12909">
        <ele>18.1</ele>
        <time>2011-10-02T08:45:58Z</time>
      </trkpt>
      <trkpt lat="43.56713" lon="7.12896">
        <ele>18.3</ele>
        <time>2011-10-02T08:46:03Z</time>
      </trkpt>
      <trkpt lat="43.56697" lon="7.12884">
        <ele>18.5</ele>
        <time>2011-10-02T08:46:10Z</time>
      </trkpt>
      <trkpt lat="43.56685" lon="7.12872">
        <ele>18.8</ele>
        <time>2011-10-02T08:46:17Z</time>
      </trkpt>
      <trkpt lat="43.56674" lon="7.1286">
        <ele>19</ele>
        <time>2011-10-02T08:46:23Z</time>
      </trkpt>
      <trkpt lat="43.56662" lon="7.12848">
        <ele>19.2</ele>
        <time>2011-10-02T08:46:29Z</time>
      </trkpt>
      <trkpt lat="43.56648" lon="7.12835">
        <ele>19.4</ele>
        <time>2011-10-02T08:46:35Z</time>
      </trkpt>
      <trkpt lat="43.56635" lon="7.12824">
        <ele>19.7</ele>
        <time>2011-10-02T08:46:43Z</time>
      </trkpt>
      <trkpt lat="43.56622" lon="7.12814">
        <ele>19.9</ele>
        <time>2011-10-02T08:46:49Z</time>
      </trkpt>
      <trkpt lat="43.5661" lon="7.12802">
        <ele>20.2</ele>
        <time>2011-10-02T08:46:55Z</time>
      </trkpt>
      <trkpt lat="43.56597" lon="7.12792">
        <ele>20.4</ele>
        <time>2011-10-02T08:47:01Z</time>
      </trkpt>
      <trkpt lat="43.56584" lon="7.1278">
        <ele>20.6</ele>
        <time>2011-10-02T08:47:07Z</time>
      </trkpt>
      <trkpt lat="43.5657" lon="7.1277">
        <ele>20.8</ele>
        <time>2011-10-02T08:47:12Z</time>
      </trkpt>
      <trkpt lat="43.56556" lon="7.12764">
        <ele>21</ele>
        <time>2011-10-02T08:47:19Z</time>
      </trkpt>
      <trkpt lat="43.5654" lon="7.12765">
        <ele>21.3</ele>
        <time>2011-10-02T08:47:26Z</time>
      </trkpt>
      <trkpt lat="43.56526" lon="7.12769">
        <ele>21.5</ele>
        <time>2011-10-02T08:47:33Z</time>
      </trkpt>
      <trkpt lat="43.5651" lon="7.1277">
        <ele>21.9</ele>
        <time>2011-10-02T08:47:42Z</time>
      </trkpt>
      <trkpt lat="43.56495" lon="7.12773">
        <ele>22.2</ele>
        <time>2011-10-02T08:47:51Z</time>
      </trkpt>
      <trkpt lat="43.56479" lon="7.12777">
        <ele>22.5</ele>
        <time>2011-10-02T08:47:58Z</time>
      </trkpt>
      <trkpt lat="43.56465" lon="7.1278">
        <ele>22.8</ele>
        <time>2011-10-02T08:48:06Z</time>
      </trkpt>
      <trkpt lat="43.5645" lon="7.12779">
        <ele>23</ele>
        <time>2011-10-02T08:48:12Z</time>
      </trkpt>
      <trkpt lat="43.56435" lon="7.12775">
        <ele>23.2</ele>
        <time>2011-10-02T08:48:18Z</time>
      </trkpt>
      <trkpt lat="43.5642" lon="7.12771">
        <ele>23.5</ele>
        <time>2011-10-02T08:48:26Z</time>
      </trkpt>
      <trkpt lat="43.56404" lon="7.12768">
        <ele>23.7</ele>
        <time>2011-10-02T08:48:33Z</time>
      </trkpt>
      <trkpt lat="43.56391" lon="7.12771">
        <ele>24</ele>
        <time>2011-10-02T08:48:40Z</time>
      </trkpt>
      <trkpt lat="43.56382" lon="7.12785">
        <ele>24.2</ele>
        <time>2011-10-02T08:48:46Z</time>
      </trkpt>
      <trkpt lat="43.56379" lon="7.12804">
        <ele>24.4</ele>
        <time>2011-10-02T08:48:52Z</time>
      </trkpt>
      <trkpt lat="43.56375" lon="7.12823">
        <ele>24.7</ele>
        <time>2011-10-02T08:48:59Z</time>
      </trkpt>
      <trkpt lat="43.56384" lon="7.12839">
        <ele>25</ele>
        <time>2011-10-02T08:49:06Z</time>
      </trkpt>
      <trkpt lat="43.56396" lon="7.12851">
        <ele>25.2</ele>
        <time>2011-10-02T08:49:14Z</time>
      </trkpt>
      <trkpt lat="43.564" lon="7.12859">
        <ele>25.7</ele>
        <time>2011-10-02T08:49:26Z</time>
      </trkpt>
      <trkpt lat="43.56386" lon="7.12857">
        <ele>26.4</ele>
        <time>2011-10-02T08:49:33Z</time>
      </trkpt>
      <trkpt lat="43.56371" lon="7.12851">
        <ele>27.1</ele>
        <time>2011-10-02T08:49:41Z</time>
      </trkpt>
      <trkpt lat="43.56357" lon="7.12847">
        <ele>27.7</ele>
        <time>2011-10-02T08:49:47Z</time>
      </trkpt>
      <trkpt lat="43.56343" lon="7.12842">
        <ele>28.3</ele>
        <time>2011-10-02T08:49:53Z</time>
      </trkpt>
      <trkpt lat="43.56328" lon="7.12837">
        <ele>28.9</ele>
        <time>2011-10-02T08:49:59Z</time>
      </trkpt>
      <trkpt lat="43.56315" lon="7.12831">
        <ele>29.4</ele>
        <time>2011-10-02T08:50:04Z</time>
      </trkpt>
      <trkpt lat="43.563" lon="7.12829">
        <ele>30.1</ele>
        <time>2011-10-02T08:50:11Z</time>
      </trkpt>
      <trkpt lat="43.56265" lon="7.12845">
        <ele>30.8</ele>
        <time>2011-10-02T08:50:19Z</time>
      </trkpt>
      <trkpt lat="43.56265" lon="7.12845">
        <ele>34.9</ele>
        <time>2011-10-02T08:51:01Z</time>
      </trkpt>
      <trkpt lat="43.56245" lon="7.12861">
        <ele>34.9</ele>
        <time>2011-10-02T08:51:01Z</time>
      </trkpt>
      <trkpt lat="43.5623" lon="7.12867">
        <ele>35.5</ele>
        <time>2011-10-02T08:51:07Z</time>
      </trkpt>
      <trkpt lat="43.56214" lon="7.12867">
        <ele>36</ele>
        <time>2011-10-02T08:51:12Z</time>
      </trkpt>
      <trkpt lat="43.56198" lon="7.12866">
        <ele>36.5</ele>
        <time>2011-10-02T08:51:17Z</time>
      </trkpt>
      <trkpt lat="43.56184" lon="7.12864">
        <ele>37</ele>
        <time>2011-10-02T08:51:22Z</time>
      </trkpt>
      <trkpt lat="43.56166" lon="7.12862">
        <ele>37.5</ele>
        <time>2011-10-02T08:51:27Z</time>
      </trkpt>
      <trkpt lat="43.56149" lon="7.12857">
        <ele>38.2</ele>
        <time>2011-10-02T08:51:33Z</time>
      </trkpt>
      <trkpt lat="43.56145" lon="7.1285">
        <ele>38.5</ele>
        <time>2011-10-02T08:51:36Z</time>
      </trkpt>
      <trkpt lat="43.56152" lon="7.12833">
        <ele>39</ele>
        <time>2011-10-02T08:51:41Z</time>
      </trkpt>
      <trkpt lat="43.56163" lon="7.12822">
        <ele>39.5</ele>
        <time>2011-10-02T08:51:46Z</time>
      </trkpt>
      <trkpt lat="43.56177" lon="7.12812">
        <ele>40.1</ele>
        <time>2011-10-02T08:51:52Z</time>
      </trkpt>
      <trkpt lat="43.56189" lon="7.12801">
        <ele>40.6</ele>
        <time>2011-10-02T08:51:57Z</time>
      </trkpt>
      <trkpt lat="43.562" lon="7.12789">
        <ele>41.1</ele>
        <time>2011-10-02T08:52:02Z</time>
      </trkpt>
      <trkpt lat="43.56211" lon="7.12776">
        <ele>41.6</ele>
        <time>2011-10-02T08:52:07Z</time>
      </trkpt>
      <trkpt lat="43.56221" lon="7.12762">
        <ele>42.1</ele>
        <time>2011-10-02T08:52:12Z</time>
      </trkpt>
      <trkpt lat="43.56231" lon="7.12746">
        <ele>42.6</ele>
        <time>2011-10-02T08:52:17Z</time>
      </trkpt>
      <trkpt lat="43.56238" lon="7.12729">
        <ele>43.2</ele>
        <time>2011-10-02T08:52:22Z</time>
      </trkpt>
      <trkpt lat="43.56245" lon="7.1271">
        <ele>43.8</ele>
        <time>2011-10-02T08:52:28Z</time>
      </trkpt>
      <trkpt lat="43.56254" lon="7.12695">
        <ele>44.3</ele>
        <time>2011-10-02T08:52:33Z</time>
      </trkpt>
      <trkpt lat="43.56267" lon="7.12679">
        <ele>44.8</ele>
        <time>2011-10-02T08:52:38Z</time>
      </trkpt>
      <trkpt lat="43.56279" lon="7.12665">
        <ele>45.3</ele>
        <time>2011-10-02T08:52:43Z</time>
      </trkpt>
      <trkpt lat="43.56289" lon="7.12653">
        <ele>45.7</ele>
        <time>2011-10-02T08:52:48Z</time>
      </trkpt>
      <trkpt lat="43.56302" lon="7.1264">
        <ele>45.7</ele>
        <time>2011-10-02T08:52:52Z</time>
      </trkpt>
      <trkpt lat="43.56314" lon="7.12628">
        <ele>45.7</ele>
        <time>2011-10-02T08:52:58Z</time>
      </trkpt>
      <trkpt lat="43.56325" lon="7.12614">
        <ele>45.7</ele>
        <time>2011-10-02T08:53:03Z</time>
      </trkpt>
      <trkpt lat="43.56338" lon="7.12604">
        <ele>45.7</ele>
        <time>2011-10-02T08:53:08Z</time>
      </trkpt>
      <trkpt lat="43.5635" lon="7.12593">
        <ele>45.7</ele>
        <time>2011-10-02T08:53:13Z</time>
      </trkpt>
      <trkpt lat="43.56364" lon="7.12576">
        <ele>45.7</ele>
        <time>2011-10-02T08:53:18Z</time>
      </trkpt>
      <trkpt lat="43.56377" lon="7.12564">
        <ele>45.7</ele>
        <time>2011-10-02T08:53:24Z</time>
      </trkpt>
      <trkpt lat="43.56393" lon="7.12552">
        <ele>45.7</ele>
        <time>2011-10-02T08:53:29Z</time>
      </trkpt>
      <trkpt lat="43.56408" lon="7.12544">
        <ele>45.7</ele>
        <time>2011-10-02T08:53:34Z</time>
      </trkpt>
      <trkpt lat="43.56422" lon="7.12533">
        <ele>45.7</ele>
        <time>2011-10-02T08:53:40Z</time>
      </trkpt>
      <trkpt lat="43.56436" lon="7.12519">
        <ele>45.7</ele>
        <time>2011-10-02T08:53:45Z</time>
      </trkpt>
      <trkpt lat="43.5645" lon="7.12508">
        <ele>45.7</ele>
        <time>2011-10-02T08:53:50Z</time>
      </trkpt>
      <trkpt lat="43.56461" lon="7.12496">
        <ele>45.7</ele>
        <time>2011-10-02T08:53:53Z</time>
      </trkpt>
      <trkpt lat="43.56473" lon="7.12487">
        <ele>45.7</ele>
        <time>2011-10-02T08:53:57Z</time>
      </trkpt>
      <trkpt lat="43.56487" lon="7.12477">
        <ele>45.7</ele>
        <time>2011-10-02T08:54:03Z</time>
      </trkpt>
      <trkpt lat="43.56501" lon="7.12468">
        <ele>45.7</ele>
        <time>2011-10-02T08:54:07Z</time>
      </trkpt>
      <trkpt lat="43.56516" lon="7.1246">
        <ele>45.7</ele>
        <time>2011-10-02T08:54:12Z</time>
      </trkpt>
      <trkpt lat="43.56531" lon="7.12458">
        <ele>45.7</ele>
        <time>2011-10-02T08:54:17Z</time>
      </trkpt>
      <trkpt lat="43.56546" lon="7.12461">
        <ele>45.7</ele>
        <time>2011-10-02T08:54:22Z</time>
      </trkpt>
      <trkpt lat="43.5656" lon="7.12471">
        <ele>45.7</ele>
        <time>2011-10-02T08:54:27Z</time>
      </trkpt>
      <trkpt lat="43.56574" lon="7.12481">
        <ele>45.7</ele>
        <time>2011-10-02T08:54:32Z</time>
      </trkpt>
      <trkpt lat="43.56589" lon="7.1249">
        <ele>45.7</ele>
        <time>2011-10-02T08:54:38Z</time>
      </trkpt>
      <trkpt lat="43.56605" lon="7.12494">
        <ele>45.7</ele>
        <time>2011-10-02T08:54:43Z</time>
      </trkpt>
      <trkpt lat="43.56619" lon="7.12495">
        <ele>45.7</ele>
        <time>2011-10-02T08:54:49Z</time>
      </trkpt>
      <trkpt lat="43.56634" lon="7.12497">
        <ele>45.7</ele>
        <time>2011-10-02T08:54:54Z</time>
      </trkpt>
      <trkpt lat="43.56649" lon="7.12498">
        <ele>45.7</ele>
        <time>2011-10-02T08:54:59Z</time>
      </trkpt>
      <trkpt lat="43.56665" lon="7.12497">
        <ele>45.7</ele>
        <time>2011-10-02T08:55:04Z</time>
      </trkpt>
      <trkpt lat="43.56681" lon="7.12496">
        <ele>45.7</ele>
        <time>2011-10-02T08:55:09Z</time>
      </trkpt>
      <trkpt lat="43.56696" lon="7.12492">
        <ele>45.7</ele>
        <time>2011-10-02T08:55:14Z</time>
      </trkpt>
      <trkpt lat="43.5671" lon="7.12486">
        <ele>45.7</ele>
        <time>2011-10-02T08:55:19Z</time>
      </trkpt>
      <trkpt lat="43.56724" lon="7.12478">
        <ele>45.7</ele>
        <time>2011-10-02T08:55:24Z</time>
      </trkpt>
      <trkpt lat="43.56738" lon="7.12468">
        <ele>45.7</ele>
        <time>2011-10-02T08:55:30Z</time>
      </trkpt>
      <trkpt lat="43.56752" lon="7.12462">
        <ele>45.7</ele>
        <time>2011-10-02T08:55:36Z</time>
      </trkpt>
      <trkpt lat="43.56768" lon="7.12461">
        <ele>45.7</ele>
        <time>2011-10-02T08:55:42Z</time>
      </trkpt>
      <trkpt lat="43.56785" lon="7.12456">
        <ele>45.7</ele>
        <time>2011-10-02T08:55:47Z</time>
      </trkpt>
      <trkpt lat="43.56799" lon="7.12452">
        <ele>45.7</ele>
        <time>2011-10-02T08:55:53Z</time>
      </trkpt>
      <trkpt lat="43.5681" lon="7.1244">
        <ele>45.7</ele>
        <time>2011-10-02T08:55:59Z</time>
      </trkpt>
      <trkpt lat="43.56804" lon="7.12422">
        <ele>45.7</ele>
        <time>2011-10-02T08:56:06Z</time>
      </trkpt>
      <trkpt lat="43.56796" lon="7.12405">
        <ele>45.7</ele>
        <time>2011-10-02T08:56:12Z</time>
      </trkpt>
      <trkpt lat="43.56785" lon="7.1239">
        <ele>45.7</ele>
        <time>2011-10-02T08:56:18Z</time>
      </trkpt>
      <trkpt lat="43.56777" lon="7.12372">
        <ele>45.7</ele>
        <time>2011-10-02T08:56:25Z</time>
      </trkpt>
      <trkpt lat="43.56772" lon="7.12353">
        <ele>45.7</ele>
        <time>2011-10-02T08:56:32Z</time>
      </trkpt>
      <trkpt lat="43.56768" lon="7.12333">
        <ele>45.7</ele>
        <time>2011-10-02T08:56:39Z</time>
      </trkpt>
      <trkpt lat="43.56765" lon="7.12308">
        <ele>45.7</ele>
        <time>2011-10-02T08:56:46Z</time>
      </trkpt>
      <trkpt lat="43.56764" lon="7.12283">
        <ele>45.7</ele>
        <time>2011-10-02T08:56:53Z</time>
      </trkpt>
      <trkpt lat="43.56763" lon="7.12264">
        <ele>45.7</ele>
        <time>2011-10-02T08:57:00Z</time>
      </trkpt>
      <trkpt lat="43.5676" lon="7.12246">
        <ele>45.7</ele>
        <time>2011-10-02T08:57:06Z</time>
      </trkpt>
      <trkpt lat="43.56753" lon="7.12229">
        <ele>45.7</ele>
        <time>2011-10-02T08:57:14Z</time>
      </trkpt>
      <trkpt lat="43.56749" lon="7.1221">
        <ele>45.7</ele>
        <time>2011-10-02T08:57:20Z</time>
      </trkpt>
      <trkpt lat="43.56745" lon="7.12191">
        <ele>45.7</ele>
        <time>2011-10-02T08:57:26Z</time>
      </trkpt>
      <trkpt lat="43.56739" lon="7.12171">
        <ele>45.7</ele>
        <time>2011-10-02T08:57:32Z</time>
      </trkpt>
      <trkpt lat="43.56734" lon="7.12151">
        <ele>45.7</ele>
        <time>2011-10-02T08:57:38Z</time>
      </trkpt>
      <trkpt lat="43.56726" lon="7.12136">
        <ele>45.7</ele>
        <time>2011-10-02T08:57:43Z</time>
      </trkpt>
      <trkpt lat="43.56714" lon="7.12125">
        <ele>45.6</ele>
        <time>2011-10-02T08:57:47Z</time>
      </trkpt>
      <trkpt lat="43.56699" lon="7.12115">
        <ele>45.2</ele>
        <time>2011-10-02T08:57:54Z</time>
      </trkpt>
      <trkpt lat="43.56686" lon="7.1211">
        <ele>45</ele>
        <time>2011-10-02T08:57:59Z</time>
      </trkpt>
      <trkpt lat="43.56671" lon="7.12102">
        <ele>44.7</ele>
        <time>2011-10-02T08:58:05Z</time>
      </trkpt>
      <trkpt lat="43.56656" lon="7.12094">
        <ele>44.4</ele>
        <time>2011-10-02T08:58:10Z</time>
      </trkpt>
      <trkpt lat="43.56642" lon="7.12083">
        <ele>44.2</ele>
        <time>2011-10-02T08:58:14Z</time>
      </trkpt>
      <trkpt lat="43.56634" lon="7.12066">
        <ele>43.9</ele>
        <time>2011-10-02T08:58:20Z</time>
      </trkpt>
      <trkpt lat="43.56628" lon="7.12048">
        <ele>43.7</ele>
        <time>2011-10-02T08:58:25Z</time>
      </trkpt>
      <trkpt lat="43.56624" lon="7.12029">
        <ele>43.4</ele>
        <time>2011-10-02T08:58:30Z</time>
      </trkpt>
      <trkpt lat="43.56619" lon="7.12009">
        <ele>43.2</ele>
        <time>2011-10-02T08:58:35Z</time>
      </trkpt>
      <trkpt lat="43.56617" lon="7.11991">
        <ele>42.9</ele>
        <time>2011-10-02T08:58:40Z</time>
      </trkpt>
      <trkpt lat="43.56613" lon="7.11971">
        <ele>42.6</ele>
        <time>2011-10-02T08:58:46Z</time>
      </trkpt>
      <trkpt lat="43.56608" lon="7.1195">
        <ele>42.3</ele>
        <time>2011-10-02T08:58:52Z</time>
      </trkpt>
      <trkpt lat="43.56604" lon="7.11929">
        <ele>42</ele>
        <time>2011-10-02T08:58:58Z</time>
      </trkpt>
      <trkpt lat="43.566" lon="7.11908">
        <ele>41.7</ele>
        <time>2011-10-02T08:59:04Z</time>
      </trkpt>
      <trkpt lat="43.56595" lon="7.1189">
        <ele>41.5</ele>
        <time>2011-10-02T08:59:09Z</time>
      </trkpt>
      <trkpt lat="43.5659" lon="7.11872">
        <ele>41.2</ele>
        <time>2011-10-02T08:59:14Z</time>
      </trkpt>
      <trkpt lat="43.56585" lon="7.11854">
        <ele>41</ele>
        <time>2011-10-02T08:59:18Z</time>
      </trkpt>
      <trkpt lat="43.56578" lon="7.11838">
        <ele>40.7</ele>
        <time>2011-10-02T08:59:24Z</time>
      </trkpt>
      <trkpt lat="43.56572" lon="7.11819">
        <ele>40.5</ele>
        <time>2011-10-02T08:59:29Z</time>
      </trkpt>
      <trkpt lat="43.56568" lon="7.11799">
        <ele>40.2</ele>
        <time>2011-10-02T08:59:34Z</time>
      </trkpt>
      <trkpt lat="43.56562" lon="7.11778">
        <ele>40</ele>
        <time>2011-10-02T08:59:39Z</time>
      </trkpt>
      <trkpt lat="43.56557" lon="7.11756">
        <ele>39.7</ele>
        <time>2011-10-02T08:59:44Z</time>
      </trkpt>
      <trkpt lat="43.56551" lon="7.11738">
        <ele>39.5</ele>
        <time>2011-10-02T08:59:49Z</time>
      </trkpt>
      <trkpt lat="43.56547" lon="7.1172">
        <ele>39.2</ele>
        <time>2011-10-02T08:59:54Z</time>
      </trkpt>
      <trkpt lat="43.56548" lon="7.1171">
        <ele>39.1</ele>
        <time>2011-10-02T08:59:57Z</time>
      </trkpt>
      <trkpt lat="43.56561" lon="7.11701">
        <ele>38.9</ele>
        <time>2011-10-02T09:00:01Z</time>
      </trkpt>
      <trkpt lat="43.56573" lon="7.11691">
        <ele>38.7</ele>
        <time>2011-10-02T09:00:05Z</time>
      </trkpt>
      <trkpt lat="43.56589" lon="7.11686">
        <ele>38.5</ele>
        <time>2011-10-02T09:00:09Z</time>
      </trkpt>
      <trkpt lat="43.56605" lon="7.11678">
        <ele>38.2</ele>
        <time>2011-10-02T09:00:15Z</time>
      </trkpt>
      <trkpt lat="43.56618" lon="7.11671">
        <ele>38</ele>
        <time>2011-10-02T09:00:19Z</time>
      </trkpt>
      <trkpt lat="43.56628" lon="7.1166">
        <ele>37.8</ele>
        <time>2011-10-02T09:00:23Z</time>
      </trkpt>
      <trkpt lat="43.56624" lon="7.11639">
        <ele>37.5</ele>
        <time>2011-10-02T09:00:28Z</time>
      </trkpt>
      <trkpt lat="43.5662" lon="7.11619">
        <ele>37.3</ele>
        <time>2011-10-02T09:00:33Z</time>
      </trkpt>
      <trkpt lat="43.56616" lon="7.11599">
        <ele>37.1</ele>
        <time>2011-10-02T09:00:37Z</time>
      </trkpt>
      <trkpt lat="43.56604" lon="7.11585">
        <ele>36.8</ele>
        <time>2011-10-02T09:00:43Z</time>
      </trkpt>
      <trkpt lat="43.56593" lon="7.11575">
        <ele>36.5</ele>
        <time>2011-10-02T09:00:48Z</time>
      </trkpt>
      <trkpt lat="43.56579" lon="7.11572">
        <ele>36.3</ele>
        <time>2011-10-02T09:00:53Z</time>
      </trkpt>
      <trkpt lat="43.56564" lon="7.11576">
        <ele>36</ele>
        <time>2011-10-02T09:00:59Z</time>
      </trkpt>
      <trkpt lat="43.56548" lon="7.11575">
        <ele>35.7</ele>
        <time>2011-10-02T09:01:05Z</time>
      </trkpt>
      <trkpt lat="43.56533" lon="7.11574">
        <ele>35.4</ele>
        <time>2011-10-02T09:01:10Z</time>
      </trkpt>
      <trkpt lat="43.5652" lon="7.11575">
        <ele>35.2</ele>
        <time>2011-10-02T09:01:15Z</time>
      </trkpt>
      <trkpt lat="43.56503" lon="7.11575">
        <ele>34.9</ele>
        <time>2011-10-02T09:01:21Z</time>
      </trkpt>
      <trkpt lat="43.56488" lon="7.11574">
        <ele>34.5</ele>
        <time>2011-10-02T09:01:28Z</time>
      </trkpt>
      <trkpt lat="43.56474" lon="7.11578">
        <ele>34.2</ele>
        <time>2011-10-02T09:01:34Z</time>
      </trkpt>
      <trkpt lat="43.5646" lon="7.11585">
        <ele>34</ele>
        <time>2011-10-02T09:01:39Z</time>
      </trkpt>
      <trkpt lat="43.56445" lon="7.11592">
        <ele>33.7</ele>
        <time>2011-10-02T09:01:44Z</time>
      </trkpt>
      <trkpt lat="43.56429" lon="7.11598">
        <ele>33.5</ele>
        <time>2011-10-02T09:01:49Z</time>
      </trkpt>
      <trkpt lat="43.56415" lon="7.11603">
        <ele>33.2</ele>
        <time>2011-10-02T09:01:54Z</time>
      </trkpt>
      <trkpt lat="43.56401" lon="7.11612">
        <ele>32.9</ele>
        <time>2011-10-02T09:02:00Z</time>
      </trkpt>
      <trkpt lat="43.56388" lon="7.11622">
        <ele>32.6</ele>
        <time>2011-10-02T09:02:06Z</time>
      </trkpt>
      <trkpt lat="43.56379" lon="7.11636">
        <ele>32.4</ele>
        <time>2011-10-02T09:02:11Z</time>
      </trkpt>
      <trkpt lat="43.56367" lon="7.11649">
        <ele>32.1</ele>
        <time>2011-10-02T09:02:16Z</time>
      </trkpt>
      <trkpt lat="43.56357" lon="7.11666">
        <ele>31.9</ele>
        <time>2011-10-02T09:02:21Z</time>
      </trkpt>
      <trkpt lat="43.56349" lon="7.11682">
        <ele>31.9</ele>
        <time>2011-10-02T09:02:26Z</time>
      </trkpt>
      <trkpt lat="43.5634" lon="7.11696">
        <ele>31.9</ele>
        <time>2011-10-02T09:02:31Z</time>
      </trkpt>
      <trkpt lat="43.5633" lon="7.11711">
        <ele>31.9</ele>
        <time>2011-10-02T09:02:36Z</time>
      </trkpt>
      <trkpt lat="43.56319" lon="7.11726">
        <ele>31.9</ele>
        <time>2011-10-02T09:02:41Z</time>
      </trkpt>
      <trkpt lat="43.56308" lon="7.11738">
        <ele>31.9</ele>
        <time>2011-10-02T09:02:46Z</time>
      </trkpt>
      <trkpt lat="43.56294" lon="7.11747">
        <ele>31.9</ele>
        <time>2011-10-02T09:02:51Z</time>
      </trkpt>
      <trkpt lat="43.5628" lon="7.11751">
        <ele>31.9</ele>
        <time>2011-10-02T09:02:56Z</time>
      </trkpt>
      <trkpt lat="43.56265" lon="7.11752">
        <ele>31.9</ele>
        <time>2011-10-02T09:03:01Z</time>
      </trkpt>
      <trkpt lat="43.56249" lon="7.11753">
        <ele>31.9</ele>
        <time>2011-10-02T09:03:07Z</time>
      </trkpt>
      <trkpt lat="43.56235" lon="7.11757">
        <ele>31</ele>
        <time>2011-10-02T09:03:14Z</time>
      </trkpt>
      <trkpt lat="43.5622" lon="7.11765">
        <ele>29.9</ele>
        <time>2011-10-02T09:03:20Z</time>
      </trkpt>
      <trkpt lat="43.56206" lon="7.11775">
        <ele>28.8</ele>
        <time>2011-10-02T09:03:26Z</time>
      </trkpt>
      <trkpt lat="43.56194" lon="7.11785">
        <ele>27.3</ele>
        <time>2011-10-02T09:03:34Z</time>
      </trkpt>
      <trkpt lat="43.56182" lon="7.11796">
        <ele>25.1</ele>
        <time>2011-10-02T09:03:46Z</time>
      </trkpt>
      <trkpt lat="43.56172" lon="7.11808">
        <ele>24</ele>
        <time>2011-10-02T09:03:52Z</time>
      </trkpt>
      <trkpt lat="43.56162" lon="7.11824">
        <ele>22.9</ele>
        <time>2011-10-02T09:03:58Z</time>
      </trkpt>
      <trkpt lat="43.56157" lon="7.11842">
        <ele>21.9</ele>
        <time>2011-10-02T09:04:03Z</time>
      </trkpt>
      <trkpt lat="43.56152" lon="7.1186">
        <ele>21.4</ele>
        <time>2011-10-02T09:04:07Z</time>
      </trkpt>
      <trkpt lat="43.56148" lon="7.1188">
        <ele>21.4</ele>
        <time>2011-10-02T09:04:14Z</time>
      </trkpt>
      <trkpt lat="43.56142" lon="7.11897">
        <ele>21.4</ele>
        <time>2011-10-02T09:04:19Z</time>
      </trkpt>
      <trkpt lat="43.56135" lon="7.11915">
        <ele>21.4</ele>
        <time>2011-10-02T09:04:24Z</time>
      </trkpt>
      <trkpt lat="43.56127" lon="7.11933">
        <ele>21.4</ele>
        <time>2011-10-02T09:04:30Z</time>
      </trkpt>
      <trkpt lat="43.56117" lon="7.1195">
        <ele>21.4</ele>
        <time>2011-10-02T09:04:36Z</time>
      </trkpt>
      <trkpt lat="43.56107" lon="7.11966">
        <ele>21.4</ele>
        <time>2011-10-02T09:04:41Z</time>
      </trkpt>
      <trkpt lat="43.56098" lon="7.11984">
        <ele>21.4</ele>
        <time>2011-10-02T09:04:47Z</time>
      </trkpt>
      <trkpt lat="43.56088" lon="7.11999">
        <ele>21.4</ele>
        <time>2011-10-02T09:04:53Z</time>
      </trkpt>
      <trkpt lat="43.56078" lon="7.12015">
        <ele>21.4</ele>
        <time>2011-10-02T09:04:59Z</time>
      </trkpt>
      <trkpt lat="43.56069" lon="7.1203">
        <ele>21.4</ele>
        <time>2011-10-02T09:05:05Z</time>
      </trkpt>
      <trkpt lat="43.5606" lon="7.12044">
        <ele>21.5</ele>
        <time>2011-10-02T09:05:11Z</time>
      </trkpt>
      <trkpt lat="43.5605" lon="7.12061">
        <ele>21.5</ele>
        <time>2011-10-02T09:05:17Z</time>
      </trkpt>
      <trkpt lat="43.56039" lon="7.12077">
        <ele>21.6</ele>
        <time>2011-10-02T09:05:23Z</time>
      </trkpt>
      <trkpt lat="43.5603" lon="7.12091">
        <ele>21.7</ele>
        <time>2011-10-02T09:05:28Z</time>
      </trkpt>
      <trkpt lat="43.56019" lon="7.12108">
        <ele>21.7</ele>
        <time>2011-10-02T09:05:34Z</time>
      </trkpt>
      <trkpt lat="43.56009" lon="7.12123">
        <ele>21.8</ele>
        <time>2011-10-02T09:05:39Z</time>
      </trkpt>
      <trkpt lat="43.55998" lon="7.12136">
        <ele>21.9</ele>
        <time>2011-10-02T09:05:44Z</time>
      </trkpt>
      <trkpt lat="43.55987" lon="7.12148">
        <ele>21.9</ele>
        <time>2011-10-02T09:05:49Z</time>
      </trkpt>
      <trkpt lat="43.55976" lon="7.12162">
        <ele>22</ele>
        <time>2011-10-02T09:05:55Z</time>
      </trkpt>
      <trkpt lat="43.5596" lon="7.12175">
        <ele>22.1</ele>
        <time>2011-10-02T09:06:01Z</time>
      </trkpt>
      <trkpt lat="43.55946" lon="7.12182">
        <ele>22.2</ele>
        <time>2011-10-02T09:06:08Z</time>
      </trkpt>
      <trkpt lat="43.5593" lon="7.12186">
        <ele>22.2</ele>
        <time>2011-10-02T09:06:14Z</time>
      </trkpt>
      <trkpt lat="43.55914" lon="7.12192">
        <ele>22.3</ele>
        <time>2011-10-02T09:06:20Z</time>
      </trkpt>
      <trkpt lat="43.55901" lon="7.12192">
        <ele>22.4</ele>
        <time>2011-10-02T09:06:25Z</time>
      </trkpt>
      <trkpt lat="43.55885" lon="7.12188">
        <ele>22.4</ele>
        <time>2011-10-02T09:06:31Z</time>
      </trkpt>
      <trkpt lat="43.55871" lon="7.12185">
        <ele>22.5</ele>
        <time>2011-10-02T09:06:37Z</time>
      </trkpt>
      <trkpt lat="43.55857" lon="7.12182">
        <ele>22.6</ele>
        <time>2011-10-02T09:06:42Z</time>
      </trkpt>
      <trkpt lat="43.55843" lon="7.12182">
        <ele>22.7</ele>
        <time>2011-10-02T09:06:48Z</time>
      </trkpt>
      <trkpt lat="43.55828" lon="7.12179">
        <ele>22.7</ele>
        <time>2011-10-02T09:06:54Z</time>
      </trkpt>
      <trkpt lat="43.55811" lon="7.12188">
        <ele>22.8</ele>
        <time>2011-10-02T09:07:00Z</time>
      </trkpt>
      <trkpt lat="43.55797" lon="7.12196">
        <ele>22.9</ele>
        <time>2011-10-02T09:07:07Z</time>
      </trkpt>
      <trkpt lat="43.55782" lon="7.12203">
        <ele>23</ele>
        <time>2011-10-02T09:07:13Z</time>
      </trkpt>
      <trkpt lat="43.55769" lon="7.1221">
        <ele>23</ele>
        <time>2011-10-02T09:07:18Z</time>
      </trkpt>
      <trkpt lat="43.55755" lon="7.12215">
        <ele>23.1</ele>
        <time>2011-10-02T09:07:23Z</time>
      </trkpt>
      <trkpt lat="43.5574" lon="7.12217">
        <ele>23.1</ele>
        <time>2011-10-02T09:07:28Z</time>
      </trkpt>
      <trkpt lat="43.55726" lon="7.12217">
        <ele>23.2</ele>
        <time>2011-10-02T09:07:35Z</time>
      </trkpt>
      <trkpt lat="43.55713" lon="7.1221">
        <ele>23.3</ele>
        <time>2011-10-02T09:07:41Z</time>
      </trkpt>
      <trkpt lat="43.557" lon="7.12201">
        <ele>23.4</ele>
        <time>2011-10-02T09:07:46Z</time>
      </trkpt>
      <trkpt lat="43.55683" lon="7.1219">
        <ele>23.5</ele>
        <time>2011-10-02T09:07:53Z</time>
      </trkpt>
      <trkpt lat="43.55668" lon="7.12181">
        <ele>23.5</ele>
        <time>2011-10-02T09:07:59Z</time>
      </trkpt>
      <trkpt lat="43.55655" lon="7.12172">
        <ele>23.6</ele>
        <time>2011-10-02T09:08:04Z</time>
      </trkpt>
      <trkpt lat="43.55644" lon="7.12161">
        <ele>23.7</ele>
        <time>2011-10-02T09:08:09Z</time>
      </trkpt>
      <trkpt lat="43.55631" lon="7.12152">
        <ele>23.7</ele>
        <time>2011-10-02T09:08:14Z</time>
      </trkpt>
      <trkpt lat="43.55617" lon="7.12143">
        <ele>23.8</ele>
        <time>2011-10-02T09:08:20Z</time>
      </trkpt>
      <trkpt lat="43.55604" lon="7.12132">
        <ele>23.9</ele>
        <time>2011-10-02T09:08:26Z</time>
      </trkpt>
      <trkpt lat="43.5559" lon="7.12122">
        <ele>23.9</ele>
        <time>2011-10-02T09:08:32Z</time>
      </trkpt>
      <trkpt lat="43.55574" lon="7.12117">
        <ele>24</ele>
        <time>2011-10-02T09:08:38Z</time>
      </trkpt>
      <trkpt lat="43.55561" lon="7.12112">
        <ele>24.1</ele>
        <time>2011-10-02T09:08:43Z</time>
      </trkpt>
      <trkpt lat="43.55546" lon="7.12112">
        <ele>24.1</ele>
        <time>2011-10-02T09:08:48Z</time>
      </trkpt>
      <trkpt lat="43.55532" lon="7.12116">
        <ele>24.2</ele>
        <time>2011-10-02T09:08:55Z</time>
      </trkpt>
      <trkpt lat="43.55522" lon="7.1213">
        <ele>24.3</ele>
        <time>2011-10-02T09:09:00Z</time>
      </trkpt>
      <trkpt lat="43.55514" lon="7.12147">
        <ele>24.3</ele>
        <time>2011-10-02T09:09:05Z</time>
      </trkpt>
      <trkpt lat="43.55509" lon="7.12164">
        <ele>24.4</ele>
        <time>2011-10-02T09:09:09Z</time>
      </trkpt>
      <trkpt lat="43.55501" lon="7.1218">
        <ele>24.5</ele>
        <time>2011-10-02T09:09:15Z</time>
      </trkpt>
      <trkpt lat="43.55495" lon="7.12198">
        <ele>24.5</ele>
        <time>2011-10-02T09:09:20Z</time>
      </trkpt>
      <trkpt lat="43.55488" lon="7.12215">
        <ele>24.6</ele>
        <time>2011-10-02T09:09:25Z</time>
      </trkpt>
      <trkpt lat="43.55476" lon="7.1223">
        <ele>24.7</ele>
        <time>2011-10-02T09:09:31Z</time>
      </trkpt>
      <trkpt lat="43.55463" lon="7.1224">
        <ele>24.7</ele>
        <time>2011-10-02T09:09:36Z</time>
      </trkpt>
      <trkpt lat="43.55451" lon="7.12247">
        <ele>24.8</ele>
        <time>2011-10-02T09:09:41Z</time>
      </trkpt>
      <trkpt lat="43.55438" lon="7.12252">
        <ele>24.9</ele>
        <time>2011-10-02T09:09:46Z</time>
      </trkpt>
      <trkpt lat="43.55422" lon="7.12257">
        <ele>24.9</ele>
        <time>2011-10-02T09:09:51Z</time>
      </trkpt>
      <trkpt lat="43.55406" lon="7.12254">
        <ele>25</ele>
        <time>2011-10-02T09:09:58Z</time>
      </trkpt>
      <trkpt lat="43.55392" lon="7.12245">
        <ele>25.1</ele>
        <time>2011-10-02T09:10:03Z</time>
      </trkpt>
      <trkpt lat="43.55379" lon="7.12237">
        <ele>25.1</ele>
        <time>2011-10-02T09:10:10Z</time>
      </trkpt>
      <trkpt lat="43.55362" lon="7.12228">
        <ele>25.2</ele>
        <time>2011-10-02T09:10:16Z</time>
      </trkpt>
      <trkpt lat="43.55349" lon="7.12224">
        <ele>25.3</ele>
        <time>2011-10-02T09:10:23Z</time>
      </trkpt>
      <trkpt lat="43.55334" lon="7.12223">
        <ele>25.4</ele>
        <time>2011-10-02T09:10:29Z</time>
      </trkpt>
      <trkpt lat="43.55318" lon="7.12226">
        <ele>25.5</ele>
        <time>2011-10-02T09:10:35Z</time>
      </trkpt>
      <trkpt lat="43.55303" lon="7.1223">
        <ele>25.5</ele>
        <time>2011-10-02T09:10:40Z</time>
      </trkpt>
      <trkpt lat="43.55289" lon="7.12233">
        <ele>25.6</ele>
        <time>2011-10-02T09:10:45Z</time>
      </trkpt>
      <trkpt lat="43.55274" lon="7.12236">
        <ele>25.7</ele>
        <time>2011-10-02T09:10:51Z</time>
      </trkpt>
      <trkpt lat="43.55259" lon="7.12233">
        <ele>25.7</ele>
        <time>2011-10-02T09:10:57Z</time>
      </trkpt>
      <trkpt lat="43.55245" lon="7.12224">
        <ele>25.8</ele>
        <time>2011-10-02T09:11:03Z</time>
      </trkpt>
      <trkpt lat="43.55232" lon="7.12213">
        <ele>25.9</ele>
        <time>2011-10-02T09:11:09Z</time>
      </trkpt>
      <trkpt lat="43.5522" lon="7.122">
        <ele>25.9</ele>
        <time>2011-10-02T09:11:14Z</time>
      </trkpt>
      <trkpt lat="43.5521" lon="7.12186">
        <ele>26</ele>
        <time>2011-10-02T09:11:19Z</time>
      </trkpt>
      <trkpt lat="43.55201" lon="7.1217">
        <ele>26.1</ele>
        <time>2011-10-02T09:11:24Z</time>
      </trkpt>
      <trkpt lat="43.55195" lon="7.12152">
        <ele>26.1</ele>
        <time>2011-10-02T09:11:30Z</time>
      </trkpt>
      <trkpt lat="43.55184" lon="7.12138">
        <ele>26.2</ele>
        <time>2011-10-02T09:11:36Z</time>
      </trkpt>
      <trkpt lat="43.55169" lon="7.12133">
        <ele>26.3</ele>
        <time>2011-10-02T09:11:43Z</time>
      </trkpt>
      <trkpt lat="43.55155" lon="7.12127">
        <ele>26.4</ele>
        <time>2011-10-02T09:11:49Z</time>
      </trkpt>
      <trkpt lat="43.5514" lon="7.12123">
        <ele>26.4</ele>
        <time>2011-10-02T09:11:55Z</time>
      </trkpt>
      <trkpt lat="43.55126" lon="7.12112">
        <ele>26.5</ele>
        <time>2011-10-02T09:12:00Z</time>
      </trkpt>
      <trkpt lat="43.55115" lon="7.121">
        <ele>26.6</ele>
        <time>2011-10-02T09:12:05Z</time>
      </trkpt>
      <trkpt lat="43.55106" lon="7.12085">
        <ele>26.6</ele>
        <time>2011-10-02T09:12:10Z</time>
      </trkpt>
      <trkpt lat="43.55099" lon="7.12065">
        <ele>26.7</ele>
        <time>2011-10-02T09:12:16Z</time>
      </trkpt>
      <trkpt lat="43.55094" lon="7.12047">
        <ele>26.8</ele>
        <time>2011-10-02T09:12:20Z</time>
      </trkpt>
      <trkpt lat="43.55094" lon="7.12027">
        <ele>26.8</ele>
        <time>2011-10-02T09:12:26Z</time>
      </trkpt>
      <trkpt lat="43.55093" lon="7.12008">
        <ele>26.9</ele>
        <time>2011-10-02T09:12:31Z</time>
      </trkpt>
      <trkpt lat="43.55095" lon="7.11987">
        <ele>27</ele>
        <time>2011-10-02T09:12:37Z</time>
      </trkpt>
      <trkpt lat="43.55097" lon="7.11967">
        <ele>27</ele>
        <time>2011-10-02T09:12:43Z</time>
      </trkpt>
      <trkpt lat="43.55098" lon="7.11947">
        <ele>27.1</ele>
        <time>2011-10-02T09:12:49Z</time>
      </trkpt>
      <trkpt lat="43.55091" lon="7.1193">
        <ele>27.2</ele>
        <time>2011-10-02T09:12:54Z</time>
      </trkpt>
      <trkpt lat="43.55084" lon="7.11912">
        <ele>27.2</ele>
        <time>2011-10-02T09:12:59Z</time>
      </trkpt>
      <trkpt lat="43.55075" lon="7.11895">
        <ele>27.3</ele>
        <time>2011-10-02T09:13:05Z</time>
      </trkpt>
      <trkpt lat="43.55065" lon="7.1188">
        <ele>27.4</ele>
        <time>2011-10-02T09:13:11Z</time>
      </trkpt>
      <trkpt lat="43.55052" lon="7.11875">
        <ele>27.5</ele>
        <time>2011-10-02T09:13:17Z</time>
      </trkpt>
      <trkpt lat="43.55037" lon="7.11872">
        <ele>27.5</ele>
        <time>2011-10-02T09:13:24Z</time>
      </trkpt>
      <trkpt lat="43.55022" lon="7.1187">
        <ele>27.6</ele>
        <time>2011-10-02T09:13:30Z</time>
      </trkpt>
      <trkpt lat="43.55007" lon="7.11867">
        <ele>27.7</ele>
        <time>2011-10-02T09:13:36Z</time>
      </trkpt>
      <trkpt lat="43.54992" lon="7.11862">
        <ele>27.8</ele>
        <time>2011-10-02T09:13:42Z</time>
      </trkpt>
      <trkpt lat="43.5498" lon="7.11853">
        <ele>27.8</ele>
        <time>2011-10-02T09:13:47Z</time>
      </trkpt>
      <trkpt lat="43.54969" lon="7.11841">
        <ele>27.9</ele>
        <time>2011-10-02T09:13:52Z</time>
      </trkpt>
      <trkpt lat="43.54956" lon="7.11829">
        <ele>28</ele>
        <time>2011-10-02T09:13:59Z</time>
      </trkpt>
      <trkpt lat="43.54941" lon="7.1183">
        <ele>28.1</ele>
        <time>2011-10-02T09:14:05Z</time>
      </trkpt>
      <trkpt lat="43.54936" lon="7.11848">
        <ele>28.2</ele>
        <time>2011-10-02T09:14:13Z</time>
      </trkpt>
      <trkpt lat="43.54943" lon="7.11866">
        <ele>28.2</ele>
        <time>2011-10-02T09:14:20Z</time>
      </trkpt>
      <trkpt lat="43.54955" lon="7.11887">
        <ele>28.3</ele>
        <time>2011-10-02T09:14:27Z</time>
      </trkpt>
      <trkpt lat="43.54961" lon="7.11906">
        <ele>28.4</ele>
        <time>2011-10-02T09:14:36Z</time>
      </trkpt>
      <trkpt lat="43.54964" lon="7.11927">
        <ele>28.5</ele>
        <time>2011-10-02T09:14:43Z</time>
      </trkpt>
      <trkpt lat="43.5496" lon="7.11947">
        <ele>28.6</ele>
        <time>2011-10-02T09:14:51Z</time>
      </trkpt>
      <trkpt lat="43.54952" lon="7.11963">
        <ele>28.7</ele>
        <time>2011-10-02T09:14:57Z</time>
      </trkpt>
      <trkpt lat="43.54944" lon="7.1198">
        <ele>28.8</ele>
        <time>2011-10-02T09:15:04Z</time>
      </trkpt>
      <trkpt lat="43.54936" lon="7.11996">
        <ele>28.9</ele>
        <time>2011-10-02T09:15:10Z</time>
      </trkpt>
      <trkpt lat="43.54928" lon="7.12011">
        <ele>28.9</ele>
        <time>2011-10-02T09:15:17Z</time>
      </trkpt>
      <trkpt lat="43.5492" lon="7.12028">
        <ele>29</ele>
        <time>2011-10-02T09:15:24Z</time>
      </trkpt>
      <trkpt lat="43.54917" lon="7.12046">
        <ele>29.2</ele>
        <time>2011-10-02T09:15:36Z</time>
      </trkpt>
      <trkpt lat="43.54914" lon="7.12064">
        <ele>29.3</ele>
        <time>2011-10-02T09:15:49Z</time>
      </trkpt>
      <trkpt lat="43.54911" lon="7.12083">
        <ele>29.4</ele>
        <time>2011-10-02T09:15:56Z</time>
      </trkpt>
      <trkpt lat="43.54906" lon="7.12103">
        <ele>29.5</ele>
        <time>2011-10-02T09:16:02Z</time>
      </trkpt>
      <trkpt lat="43.54899" lon="7.12123">
        <ele>29.6</ele>
        <time>2011-10-02T09:16:08Z</time>
      </trkpt>
      <trkpt lat="43.54893" lon="7.12143">
        <ele>29.6</ele>
        <time>2011-10-02T09:16:14Z</time>
      </trkpt>
      <trkpt lat="43.54889" lon="7.12164">
        <ele>29.7</ele>
        <time>2011-10-02T09:16:20Z</time>
      </trkpt>
      <trkpt lat="43.54887" lon="7.12186">
        <ele>29.8</ele>
        <time>2011-10-02T09:16:25Z</time>
      </trkpt>
      <trkpt lat="43.54887" lon="7.12208">
        <ele>29.9</ele>
        <time>2011-10-02T09:16:32Z</time>
      </trkpt>
      <trkpt lat="43.54887" lon="7.12227">
        <ele>29.9</ele>
        <time>2011-10-02T09:16:37Z</time>
      </trkpt>
      <trkpt lat="43.5489" lon="7.12253">
        <ele>30</ele>
        <time>2011-10-02T09:16:43Z</time>
      </trkpt>
      <trkpt lat="43.54897" lon="7.1227">
        <ele>30.1</ele>
        <time>2011-10-02T09:16:49Z</time>
      </trkpt>
      <trkpt lat="43.54906" lon="7.12287">
        <ele>30.1</ele>
        <time>2011-10-02T09:16:54Z</time>
      </trkpt>
      <trkpt lat="43.54917" lon="7.12303">
        <ele>30.2</ele>
        <time>2011-10-02T09:17:00Z</time>
      </trkpt>
      <trkpt lat="43.54928" lon="7.12319">
        <ele>30.3</ele>
        <time>2011-10-02T09:17:06Z</time>
      </trkpt>
      <trkpt lat="43.54938" lon="7.12333">
        <ele>30.4</ele>
        <time>2011-10-02T09:17:12Z</time>
      </trkpt>
      <trkpt lat="43.5495" lon="7.12344">
        <ele>30.4</ele>
        <time>2011-10-02T09:17:17Z</time>
      </trkpt>
      <trkpt lat="43.54959" lon="7.12358">
        <ele>30.5</ele>
        <time>2011-10-02T09:17:24Z</time>
      </trkpt>
      <trkpt lat="43.54969" lon="7.12378">
        <ele>30.6</ele>
        <time>2011-10-02T09:17:30Z</time>
      </trkpt>
      <trkpt lat="43.54975" lon="7.12398">
        <ele>30.7</ele>
        <time>2011-10-02T09:17:37Z</time>
      </trkpt>
      <trkpt lat="43.5498" lon="7.12416">
        <ele>30.7</ele>
        <time>2011-10-02T09:17:43Z</time>
      </trkpt>
      <trkpt lat="43.54989" lon="7.12432">
        <ele>30.8</ele>
        <time>2011-10-02T09:17:49Z</time>
      </trkpt>
      <trkpt lat="43.54998" lon="7.12449">
        <ele>30.9</ele>
        <time>2011-10-02T09:17:55Z</time>
      </trkpt>
      <trkpt lat="43.55007" lon="7.12466">
        <ele>31</ele>
        <time>2011-10-02T09:18:01Z</time>
      </trkpt>
      <trkpt lat="43.55014" lon="7.12484">
        <ele>31</ele>
        <time>2011-10-02T09:18:06Z</time>
      </trkpt>
      <trkpt lat="43.55023" lon="7.12501">
        <ele>31.1</ele>
        <time>2011-10-02T09:18:11Z</time>
      </trkpt>
      <trkpt lat="43.55032" lon="7.12516">
        <ele>31.2</ele>
        <time>2011-10-02T09:18:16Z</time>
      </trkpt>
      <trkpt lat="43.55038" lon="7.12533">
        <ele>31.2</ele>
        <time>2011-10-02T09:18:21Z</time>
      </trkpt>
      <trkpt lat="43.55046" lon="7.12552">
        <ele>31.3</ele>
        <time>2011-10-02T09:18:27Z</time>
      </trkpt>
      <trkpt lat="43.55053" lon="7.12571">
        <ele>31.4</ele>
        <time>2011-10-02T09:18:33Z</time>
      </trkpt>
      <trkpt lat="43.55059" lon="7.12589">
        <ele>31.4</ele>
        <time>2011-10-02T09:18:37Z</time>
      </trkpt>
      <trkpt lat="43.55067" lon="7.1261">
        <ele>31.5</ele>
        <time>2011-10-02T09:18:43Z</time>
      </trkpt>
      <trkpt lat="43.55075" lon="7.12627">
        <ele>31.6</ele>
        <time>2011-10-02T09:18:49Z</time>
      </trkpt>
      <trkpt lat="43.55083" lon="7.12647">
        <ele>31.6</ele>
        <time>2011-10-02T09:18:54Z</time>
      </trkpt>
      <trkpt lat="43.55091" lon="7.12667">
        <ele>31.7</ele>
        <time>2011-10-02T09:19:01Z</time>
      </trkpt>
      <trkpt lat="43.55098" lon="7.12686">
        <ele>31.8</ele>
        <time>2011-10-02T09:19:06Z</time>
      </trkpt>
      <trkpt lat="43.55106" lon="7.12704">
        <ele>32.1</ele>
        <time>2011-10-02T09:19:12Z</time>
      </trkpt>
      <trkpt lat="43.55114" lon="7.12722">
        <ele>32.4</ele>
        <time>2011-10-02T09:19:19Z</time>
      </trkpt>
      <trkpt lat="43.55122" lon="7.1274">
        <ele>32.7</ele>
        <time>2011-10-02T09:19:25Z</time>
      </trkpt>
      <trkpt lat="43.5513" lon="7.12757">
        <ele>33</ele>
        <time>2011-10-02T09:19:31Z</time>
      </trkpt>
      <trkpt lat="43.55139" lon="7.12777">
        <ele>33.2</ele>
        <time>2011-10-02T09:19:36Z</time>
      </trkpt>
      <trkpt lat="43.55146" lon="7.12793">
        <ele>33.5</ele>
        <time>2011-10-02T09:19:42Z</time>
      </trkpt>
      <trkpt lat="43.55153" lon="7.12809">
        <ele>33.7</ele>
        <time>2011-10-02T09:19:47Z</time>
      </trkpt>
      <trkpt lat="43.55162" lon="7.12827">
        <ele>34</ele>
        <time>2011-10-02T09:19:53Z</time>
      </trkpt>
      <trkpt lat="43.55171" lon="7.12844">
        <ele>34.3</ele>
        <time>2011-10-02T09:19:59Z</time>
      </trkpt>
      <trkpt lat="43.55182" lon="7.12858">
        <ele>34.6</ele>
        <time>2011-10-02T09:20:05Z</time>
      </trkpt>
      <trkpt lat="43.55194" lon="7.12872">
        <ele>34.8</ele>
        <time>2011-10-02T09:20:11Z</time>
      </trkpt>
      <trkpt lat="43.55206" lon="7.12882">
        <ele>35.1</ele>
        <time>2011-10-02T09:20:16Z</time>
      </trkpt>
      <trkpt lat="43.55214" lon="7.12897">
        <ele>35.3</ele>
        <time>2011-10-02T09:20:21Z</time>
      </trkpt>
      <trkpt lat="43.55219" lon="7.12917">
        <ele>35.5</ele>
        <time>2011-10-02T09:20:25Z</time>
      </trkpt>
      <trkpt lat="43.55221" lon="7.12937">
        <ele>35.8</ele>
        <time>2011-10-02T09:20:31Z</time>
      </trkpt>
      <trkpt lat="43.55224" lon="7.1296">
        <ele>36</ele>
        <time>2011-10-02T09:20:36Z</time>
      </trkpt>
      <trkpt lat="43.55223" lon="7.1298">
        <ele>36.3</ele>
        <time>2011-10-02T09:20:42Z</time>
      </trkpt>
      <trkpt lat="43.55216" lon="7.12996">
        <ele>36.5</ele>
        <time>2011-10-02T09:20:47Z</time>
      </trkpt>
      <trkpt lat="43.55206" lon="7.13014">
        <ele>36.8</ele>
        <time>2011-10-02T09:20:53Z</time>
      </trkpt>
      <trkpt lat="43.552" lon="7.13031">
        <ele>37</ele>
        <time>2011-10-02T09:20:58Z</time>
      </trkpt>
      <trkpt lat="43.5519" lon="7.13045">
        <ele>37.2</ele>
        <time>2011-10-02T09:21:03Z</time>
      </trkpt>
      <trkpt lat="43.55181" lon="7.1306">
        <ele>37.5</ele>
        <time>2011-10-02T09:21:08Z</time>
      </trkpt>
      <trkpt lat="43.55169" lon="7.13072">
        <ele>37.7</ele>
        <time>2011-10-02T09:21:13Z</time>
      </trkpt>
      <trkpt lat="43.55157" lon="7.1308">
        <ele>37.9</ele>
        <time>2011-10-02T09:21:18Z</time>
      </trkpt>
      <trkpt lat="43.55142" lon="7.13091">
        <ele>38.2</ele>
        <time>2011-10-02T09:21:23Z</time>
      </trkpt>
      <trkpt lat="43.5513" lon="7.131">
        <ele>38.4</ele>
        <time>2011-10-02T09:21:29Z</time>
      </trkpt>
      <trkpt lat="43.55117" lon="7.1311">
        <ele>38.7</ele>
        <time>2011-10-02T09:21:35Z</time>
      </trkpt>
      <trkpt lat="43.55102" lon="7.13118">
        <ele>39</ele>
        <time>2011-10-02T09:21:41Z</time>
      </trkpt>
      <trkpt lat="43.55086" lon="7.13131">
        <ele>39.3</ele>
        <time>2011-10-02T09:21:47Z</time>
      </trkpt>
      <trkpt lat="43.55073" lon="7.13143">
        <ele>39.7</ele>
        <time>2011-10-02T09:21:56Z</time>
      </trkpt>
      <trkpt lat="43.55062" lon="7.13154">
        <ele>40</ele>
        <time>2011-10-02T09:22:02Z</time>
      </trkpt>
      <trkpt lat="43.55061" lon="7.13174">
        <ele>40.2</ele>
        <time>2011-10-02T09:22:08Z</time>
      </trkpt>
      <trkpt lat="43.55065" lon="7.13194">
        <ele>40.5</ele>
        <time>2011-10-02T09:22:14Z</time>
      </trkpt>
      <trkpt lat="43.55069" lon="7.13212">
        <ele>40.8</ele>
        <time>2011-10-02T09:22:19Z</time>
      </trkpt>
      <trkpt lat="43.55074" lon="7.13231">
        <ele>41</ele>
        <time>2011-10-02T09:22:24Z</time>
      </trkpt>
      <trkpt lat="43.55077" lon="7.13256">
        <ele>41.2</ele>
        <time>2011-10-02T09:22:29Z</time>
      </trkpt>
      <trkpt lat="43.5508" lon="7.13275">
        <ele>41.5</ele>
        <time>2011-10-02T09:22:35Z</time>
      </trkpt>
      <trkpt lat="43.55084" lon="7.13298">
        <ele>41.7</ele>
        <time>2011-10-02T09:22:40Z</time>
      </trkpt>
      <trkpt lat="43.55087" lon="7.13318">
        <ele>41.8</ele>
        <time>2011-10-02T09:22:46Z</time>
      </trkpt>
      <trkpt lat="43.5509" lon="7.13337">
        <ele>41.8</ele>
        <time>2011-10-02T09:22:51Z</time>
      </trkpt>
      <trkpt lat="43.55093" lon="7.1336">
        <ele>41.8</ele>
        <time>2011-10-02T09:22:56Z</time>
      </trkpt>
      <trkpt lat="43.55095" lon="7.13381">
        <ele>41.8</ele>
        <time>2011-10-02T09:23:01Z</time>
      </trkpt>
      <trkpt lat="43.55101" lon="7.13398">
        <ele>41.8</ele>
        <time>2011-10-02T09:23:06Z</time>
      </trkpt>
      <trkpt lat="43.5511" lon="7.13413">
        <ele>41.8</ele>
        <time>2011-10-02T09:23:11Z</time>
      </trkpt>
      <trkpt lat="43.5512" lon="7.13427">
        <ele>41.8</ele>
        <time>2011-10-02T09:23:16Z</time>
      </trkpt>
      <trkpt lat="43.5513" lon="7.13441">
        <ele>41.8</ele>
        <time>2011-10-02T09:23:21Z</time>
      </trkpt>
      <trkpt lat="43.55136" lon="7.13462">
        <ele>41.8</ele>
        <time>2011-10-02T09:23:26Z</time>
      </trkpt>
      <trkpt lat="43.55138" lon="7.13479">
        <ele>41.8</ele>
        <time>2011-10-02T09:23:30Z</time>
      </trkpt>
      <trkpt lat="43.5515" lon="7.1349">
        <ele>41.8</ele>
        <time>2011-10-02T09:23:34Z</time>
      </trkpt>
      <trkpt lat="43.55166" lon="7.135">
        <ele>41.8</ele>
        <time>2011-10-02T09:23:39Z</time>
      </trkpt>
      <trkpt lat="43.55182" lon="7.13507">
        <ele>41.8</ele>
        <time>2011-10-02T09:23:46Z</time>
      </trkpt>
      <trkpt lat="43.55196" lon="7.13513">
        <ele>41.8</ele>
        <time>2011-10-02T09:23:51Z</time>
      </trkpt>
      <trkpt lat="43.5521" lon="7.1352">
        <ele>41.8</ele>
        <time>2011-10-02T09:23:56Z</time>
      </trkpt>
      <trkpt lat="43.55226" lon="7.13527">
        <ele>41.8</ele>
        <time>2011-10-02T09:24:01Z</time>
      </trkpt>
      <trkpt lat="43.55241" lon="7.13533">
        <ele>41.8</ele>
        <time>2011-10-02T09:24:06Z</time>
      </trkpt>
      <trkpt lat="43.55256" lon="7.1354">
        <ele>41.8</ele>
        <time>2011-10-02T09:24:11Z</time>
      </trkpt>
      <trkpt lat="43.5527" lon="7.13546">
        <ele>41.8</ele>
        <time>2011-10-02T09:24:15Z</time>
      </trkpt>
      <trkpt lat="43.55283" lon="7.13554">
        <ele>41.8</ele>
        <time>2011-10-02T09:24:19Z</time>
      </trkpt>
      <trkpt lat="43.55296" lon="7.13561">
        <ele>41.8</ele>
        <time>2011-10-02T09:24:23Z</time>
      </trkpt>
      <trkpt lat="43.55311" lon="7.1357">
        <ele>41.8</ele>
        <time>2011-10-02T09:24:28Z</time>
      </trkpt>
      <trkpt lat="43.55326" lon="7.13579">
        <ele>41.8</ele>
        <time>2011-10-02T09:24:33Z</time>
      </trkpt>
      <trkpt lat="43.55341" lon="7.13587">
        <ele>41.5</ele>
        <time>2011-10-02T09:24:38Z</time>
      </trkpt>
      <trkpt lat="43.55357" lon="7.13595">
        <ele>40.1</ele>
        <time>2011-10-02T09:24:43Z</time>
      </trkpt>
      <trkpt lat="43.55372" lon="7.13603">
        <ele>38.7</ele>
        <time>2011-10-02T09:24:48Z</time>
      </trkpt>
      <trkpt lat="43.55387" lon="7.13609">
        <ele>37.3</ele>
        <time>2011-10-02T09:24:53Z</time>
      </trkpt>
      <trkpt lat="43.55402" lon="7.13616">
        <ele>35.9</ele>
        <time>2011-10-02T09:24:58Z</time>
      </trkpt>
      <trkpt lat="43.55414" lon="7.1362">
        <ele>34.7</ele>
        <time>2011-10-02T09:25:02Z</time>
      </trkpt>
      <trkpt lat="43.55425" lon="7.13607">
        <ele>33.3</ele>
        <time>2011-10-02T09:25:07Z</time>
      </trkpt>
      <trkpt lat="43.55434" lon="7.13589">
        <ele>31.7</ele>
        <time>2011-10-02T09:25:13Z</time>
      </trkpt>
      <trkpt lat="43.55441" lon="7.1357">
        <ele>30.3</ele>
        <time>2011-10-02T09:25:18Z</time>
      </trkpt>
      <trkpt lat="43.55447" lon="7.13551">
        <ele>30</ele>
        <time>2011-10-02T09:25:23Z</time>
      </trkpt>
      <trkpt lat="43.55457" lon="7.13537">
        <ele>30</ele>
        <time>2011-10-02T09:25:28Z</time>
      </trkpt>
      <trkpt lat="43.5547" lon="7.13528">
        <ele>30</ele>
        <time>2011-10-02T09:25:33Z</time>
      </trkpt>
      <trkpt lat="43.55482" lon="7.13518">
        <ele>30</ele>
        <time>2011-10-02T09:25:37Z</time>
      </trkpt>
      <trkpt lat="43.5549" lon="7.13504">
        <ele>30</ele>
        <time>2011-10-02T09:25:43Z</time>
      </trkpt>
      <trkpt lat="43.55498" lon="7.13486">
        <ele>30</ele>
        <time>2011-10-02T09:25:48Z</time>
      </trkpt>
      <trkpt lat="43.55507" lon="7.13468">
        <ele>30</ele>
        <time>2011-10-02T09:25:54Z</time>
      </trkpt>
      <trkpt lat="43.5551" lon="7.1345">
        <ele>30</ele>
        <time>2011-10-02T09:26:00Z</time>
      </trkpt>
      <trkpt lat="43.55515" lon="7.13428">
        <ele>30</ele>
        <time>2011-10-02T09:26:06Z</time>
      </trkpt>
      <trkpt lat="43.55517" lon="7.13409">
        <ele>30</ele>
        <time>2011-10-02T09:26:12Z</time>
      </trkpt>
      <trkpt lat="43.55513" lon="7.13391">
        <ele>29.9</ele>
        <time>2011-10-02T09:26:19Z</time>
      </trkpt>
      <trkpt lat="43.5551" lon="7.13372">
        <ele>29.5</ele>
        <time>2011-10-02T09:26:25Z</time>
      </trkpt>
      <trkpt lat="43.55513" lon="7.13358">
        <ele>29.2</ele>
        <time>2011-10-02T09:26:29Z</time>
      </trkpt>
      <trkpt lat="43.55524" lon="7.1335">
        <ele>29</ele>
        <time>2011-10-02T09:26:33Z</time>
      </trkpt>
      <trkpt lat="43.55534" lon="7.13362">
        <ele>28.6</ele>
        <time>2011-10-02T09:26:38Z</time>
      </trkpt>
      <trkpt lat="43.55546" lon="7.13373">
        <ele>28.3</ele>
        <time>2011-10-02T09:26:43Z</time>
      </trkpt>
      <trkpt lat="43.55559" lon="7.13384">
        <ele>28</ele>
        <time>2011-10-02T09:26:48Z</time>
      </trkpt>
      <trkpt lat="43.55574" lon="7.13395">
        <ele>27.6</ele>
        <time>2011-10-02T09:26:53Z</time>
      </trkpt>
      <trkpt lat="43.55587" lon="7.13404">
        <ele>27.3</ele>
        <time>2011-10-02T09:26:58Z</time>
      </trkpt>
      <trkpt lat="43.556" lon="7.13417">
        <ele>26.9</ele>
        <time>2011-10-02T09:27:04Z</time>
      </trkpt>
      <trkpt lat="43.55612" lon="7.13427">
        <ele>26.5</ele>
        <time>2011-10-02T09:27:09Z</time>
      </trkpt>
      <trkpt lat="43.55625" lon="7.1344">
        <ele>26.1</ele>
        <time>2011-10-02T09:27:16Z</time>
      </trkpt>
      <trkpt lat="43.55636" lon="7.13453">
        <ele>25.7</ele>
        <time>2011-10-02T09:27:21Z</time>
      </trkpt>
      <trkpt lat="43.55648" lon="7.13464">
        <ele>25.5</ele>
        <time>2011-10-02T09:27:25Z</time>
      </trkpt>
      <trkpt lat="43.55662" lon="7.13472">
        <ele>25.1</ele>
        <time>2011-10-02T09:27:31Z</time>
      </trkpt>
      <trkpt lat="43.55676" lon="7.13475">
        <ele>24.7</ele>
        <time>2011-10-02T09:27:37Z</time>
      </trkpt>
      <trkpt lat="43.55691" lon="7.13478">
        <ele>24.3</ele>
        <time>2011-10-02T09:27:43Z</time>
      </trkpt>
      <trkpt lat="43.55708" lon="7.13477">
        <ele>23.9</ele>
        <time>2011-10-02T09:27:48Z</time>
      </trkpt>
      <trkpt lat="43.55724" lon="7.13476">
        <ele>23.5</ele>
        <time>2011-10-02T09:27:55Z</time>
      </trkpt>
      <trkpt lat="43.55738" lon="7.13476">
        <ele>23</ele>
        <time>2011-10-02T09:28:01Z</time>
      </trkpt>
      <trkpt lat="43.55753" lon="7.13472">
        <ele>22.6</ele>
        <time>2011-10-02T09:28:07Z</time>
      </trkpt>
      <trkpt lat="43.55769" lon="7.1347">
        <ele>22.2</ele>
        <time>2011-10-02T09:28:13Z</time>
      </trkpt>
      <trkpt lat="43.55785" lon="7.1347">
        <ele>21.8</ele>
        <time>2011-10-02T09:28:19Z</time>
      </trkpt>
      <trkpt lat="43.55799" lon="7.13473">
        <ele>21.5</ele>
        <time>2011-10-02T09:28:24Z</time>
      </trkpt>
      <trkpt lat="43.55813" lon="7.1348">
        <ele>21.2</ele>
        <time>2011-10-02T09:28:29Z</time>
      </trkpt>
      <trkpt lat="43.55826" lon="7.13488">
        <ele>20.8</ele>
        <time>2011-10-02T09:28:34Z</time>
      </trkpt>
      <trkpt lat="43.55841" lon="7.13498">
        <ele>20.4</ele>
        <time>2011-10-02T09:28:40Z</time>
      </trkpt>
      <trkpt lat="43.55852" lon="7.13508">
        <ele>20.1</ele>
        <time>2011-10-02T09:28:45Z</time>
      </trkpt>
      <trkpt lat="43.55864" lon="7.13517">
        <ele>20</ele>
        <time>2011-10-02T09:28:49Z</time>
      </trkpt>
      <trkpt lat="43.55877" lon="7.13525">
        <ele>20</ele>
        <time>2011-10-02T09:28:55Z</time>
      </trkpt>
      <trkpt lat="43.55893" lon="7.13538">
        <ele>20.1</ele>
        <time>2011-10-02T09:29:01Z</time>
      </trkpt>
      <trkpt lat="43.55906" lon="7.13545">
        <ele>20.1</ele>
        <time>2011-10-02T09:29:07Z</time>
      </trkpt>
      <trkpt lat="43.5592" lon="7.13556">
        <ele>20.2</ele>
        <time>2011-10-02T09:29:13Z</time>
      </trkpt>
      <trkpt lat="43.55932" lon="7.13568">
        <ele>20.2</ele>
        <time>2011-10-02T09:29:19Z</time>
      </trkpt>
      <trkpt lat="43.55946" lon="7.13577">
        <ele>20.3</ele>
        <time>2011-10-02T09:29:25Z</time>
      </trkpt>
      <trkpt lat="43.55963" lon="7.13587">
        <ele>20.3</ele>
        <time>2011-10-02T09:29:31Z</time>
      </trkpt>
      <trkpt lat="43.55977" lon="7.13595">
        <ele>20.4</ele>
        <time>2011-10-02T09:29:38Z</time>
      </trkpt>
      <trkpt lat="43.55992" lon="7.13608">
        <ele>20.5</ele>
        <time>2011-10-02T09:29:44Z</time>
      </trkpt>
      <trkpt lat="43.56005" lon="7.13619">
        <ele>20.5</ele>
        <time>2011-10-02T09:29:51Z</time>
      </trkpt>
      <trkpt lat="43.56019" lon="7.13626">
        <ele>20.6</ele>
        <time>2011-10-02T09:29:57Z</time>
      </trkpt>
      <trkpt lat="43.56033" lon="7.13635">
        <ele>20.6</ele>
        <time>2011-10-02T09:30:03Z</time>
      </trkpt>
      <trkpt lat="43.56046" lon="7.13643">
        <ele>20.7</ele>
        <time>2011-10-02T09:30:07Z</time>
      </trkpt>
      <trkpt lat="43.56059" lon="7.13654">
        <ele>20.7</ele>
        <time>2011-10-02T09:30:14Z</time>
      </trkpt>
      <trkpt lat="43.56071" lon="7.13666">
        <ele>20.8</ele>
        <time>2011-10-02T09:30:20Z</time>
      </trkpt>
      <trkpt lat="43.56085" lon="7.13681">
        <ele>20.8</ele>
        <time>2011-10-02T09:30:26Z</time>
      </trkpt>
      <trkpt lat="43.561" lon="7.13697">
        <ele>20.9</ele>
        <time>2011-10-02T09:30:33Z</time>
      </trkpt>
      <trkpt lat="43.5611" lon="7.1371">
        <ele>21</ele>
        <time>2011-10-02T09:30:39Z</time>
      </trkpt>
      <trkpt lat="43.56121" lon="7.13726">
        <ele>21</ele>
        <time>2011-10-02T09:30:45Z</time>
      </trkpt>
      <trkpt lat="43.5613" lon="7.13741">
        <ele>21</ele>
        <time>2011-10-02T09:30:50Z</time>
      </trkpt>
      <trkpt lat="43.56139" lon="7.13755">
        <ele>21.1</ele>
        <time>2011-10-02T09:30:55Z</time>
      </trkpt>
      <trkpt lat="43.5615" lon="7.13771">
        <ele>21.1</ele>
        <time>2011-10-02T09:31:01Z</time>
      </trkpt>
      <trkpt lat="43.5616" lon="7.13784">
        <ele>21.2</ele>
        <time>2011-10-02T09:31:07Z</time>
      </trkpt>
      <trkpt lat="43.56173" lon="7.13794">
        <ele>21.3</ele>
        <time>2011-10-02T09:31:13Z</time>
      </trkpt>
      <trkpt lat="43.56187" lon="7.13803">
        <ele>21.3</ele>
        <time>2011-10-02T09:31:19Z</time>
      </trkpt>
      <trkpt lat="43.56203" lon="7.13813">
        <ele>21.4</ele>
        <time>2011-10-02T09:31:25Z</time>
      </trkpt>
      <trkpt lat="43.56216" lon="7.13821">
        <ele>21.4</ele>
        <time>2011-10-02T09:31:34Z</time>
      </trkpt>
      <trkpt lat="43.56229" lon="7.13832">
        <ele>21.6</ele>
        <time>2011-10-02T09:31:53Z</time>
      </trkpt>
      <trkpt lat="43.56239" lon="7.13844">
        <ele>21.7</ele>
        <time>2011-10-02T09:32:05Z</time>
      </trkpt>
      <trkpt lat="43.56252" lon="7.13856">
        <ele>21.8</ele>
        <time>2011-10-02T09:32:12Z</time>
      </trkpt>
      <trkpt lat="43.56266" lon="7.13864">
        <ele>21.8</ele>
        <time>2011-10-02T09:32:18Z</time>
      </trkpt>
      <trkpt lat="43.56281" lon="7.13869">
        <ele>21.9</ele>
        <time>2011-10-02T09:32:24Z</time>
      </trkpt>
      <trkpt lat="43.56295" lon="7.13873">
        <ele>21.9</ele>
        <time>2011-10-02T09:32:30Z</time>
      </trkpt>
      <trkpt lat="43.56309" lon="7.1387">
        <ele>22</ele>
        <time>2011-10-02T09:32:36Z</time>
      </trkpt>
      <trkpt lat="43.56324" lon="7.13863">
        <ele>22</ele>
        <time>2011-10-02T09:32:41Z</time>
      </trkpt>
      <trkpt lat="43.56341" lon="7.13852">
        <ele>22.1</ele>
        <time>2011-10-02T09:32:48Z</time>
      </trkpt>
      <trkpt lat="43.56353" lon="7.13844">
        <ele>22.1</ele>
        <time>2011-10-02T09:32:53Z</time>
      </trkpt>
      <trkpt lat="43.56367" lon="7.13835">
        <ele>22.2</ele>
        <time>2011-10-02T09:33:00Z</time>
      </trkpt>
      <trkpt lat="43.56382" lon="7.13826">
        <ele>22.3</ele>
        <time>2011-10-02T09:33:06Z</time>
      </trkpt>
      <trkpt lat="43.56396" lon="7.13817">
        <ele>22.3</ele>
        <time>2011-10-02T09:33:10Z</time>
      </trkpt>
      <trkpt lat="43.56412" lon="7.13805">
        <ele>22.3</ele>
        <time>2011-10-02T09:33:16Z</time>
      </trkpt>
      <trkpt lat="43.56428" lon="7.13795">
        <ele>22.4</ele>
        <time>2011-10-02T09:33:23Z</time>
      </trkpt>
      <trkpt lat="43.56441" lon="7.13788">
        <ele>22.5</ele>
        <time>2011-10-02T09:33:30Z</time>
      </trkpt>
      <trkpt lat="43.56457" lon="7.13781">
        <ele>22.5</ele>
        <time>2011-10-02T09:33:36Z</time>
      </trkpt>
      <trkpt lat="43.56469" lon="7.13772">
        <ele>22.6</ele>
        <time>2011-10-02T09:33:41Z</time>
      </trkpt>
      <trkpt lat="43.5648" lon="7.13762">
        <ele>22.6</ele>
        <time>2011-10-02T09:33:46Z</time>
      </trkpt>
      <trkpt lat="43.56495" lon="7.13755">
        <ele>22.7</ele>
        <time>2011-10-02T09:33:52Z</time>
      </trkpt>
      <trkpt lat="43.56508" lon="7.13744">
        <ele>22.7</ele>
        <time>2011-10-02T09:33:57Z</time>
      </trkpt>
      <trkpt lat="43.56522" lon="7.13735">
        <ele>22.8</ele>
        <time>2011-10-02T09:34:04Z</time>
      </trkpt>
      <trkpt lat="43.56536" lon="7.13725">
        <ele>22.8</ele>
        <time>2011-10-02T09:34:10Z</time>
      </trkpt>
      <trkpt lat="43.5655" lon="7.13718">
        <ele>22.9</ele>
        <time>2011-10-02T09:34:16Z</time>
      </trkpt>
      <trkpt lat="43.56564" lon="7.13715">
        <ele>22.9</ele>
        <time>2011-10-02T09:34:22Z</time>
      </trkpt>
      <trkpt lat="43.56578" lon="7.13715">
        <ele>23</ele>
        <time>2011-10-02T09:34:28Z</time>
      </trkpt>
      <trkpt lat="43.56592" lon="7.13718">
        <ele>23</ele>
        <time>2011-10-02T09:34:34Z</time>
      </trkpt>
      <trkpt lat="43.5661" lon="7.13725">
        <ele>23.1</ele>
        <time>2011-10-02T09:34:41Z</time>
      </trkpt>
      <trkpt lat="43.56624" lon="7.13729">
        <ele>23.2</ele>
        <time>2011-10-02T09:34:49Z</time>
      </trkpt>
      <trkpt lat="43.56638" lon="7.13731">
        <ele>23.2</ele>
        <time>2011-10-02T09:34:55Z</time>
      </trkpt>
      <trkpt lat="43.56654" lon="7.13735">
        <ele>23.3</ele>
        <time>2011-10-02T09:35:01Z</time>
      </trkpt>
      <trkpt lat="43.56669" lon="7.1374">
        <ele>23.3</ele>
        <time>2011-10-02T09:35:07Z</time>
      </trkpt>
      <trkpt lat="43.56685" lon="7.1374">
        <ele>23.4</ele>
        <time>2011-10-02T09:35:13Z</time>
      </trkpt>
      <trkpt lat="43.56701" lon="7.13743">
        <ele>23.4</ele>
        <time>2011-10-02T09:35:19Z</time>
      </trkpt>
      <trkpt lat="43.56716" lon="7.13749">
        <ele>23.5</ele>
        <time>2011-10-02T09:35:26Z</time>
      </trkpt>
      <trkpt lat="43.5673" lon="7.13755">
        <ele>23.6</ele>
        <time>2011-10-02T09:35:31Z</time>
      </trkpt>
      <trkpt lat="43.56743" lon="7.13765">
        <ele>23.6</ele>
        <time>2011-10-02T09:35:37Z</time>
      </trkpt>
      <trkpt lat="43.56757" lon="7.13776">
        <ele>23.7</ele>
        <time>2011-10-02T09:35:43Z</time>
      </trkpt>
      <trkpt lat="43.56768" lon="7.13788">
        <ele>23.7</ele>
        <time>2011-10-02T09:35:48Z</time>
      </trkpt>
      <trkpt lat="43.56779" lon="7.13801">
        <ele>23.7</ele>
        <time>2011-10-02T09:35:53Z</time>
      </trkpt>
      <trkpt lat="43.5679" lon="7.13813">
        <ele>23.8</ele>
        <time>2011-10-02T09:35:58Z</time>
      </trkpt>
      <trkpt lat="43.56801" lon="7.13826">
        <ele>23.8</ele>
        <time>2011-10-02T09:36:03Z</time>
      </trkpt>
      <trkpt lat="43.56813" lon="7.1384">
        <ele>23.9</ele>
        <time>2011-10-02T09:36:08Z</time>
      </trkpt>
      <trkpt lat="43.56825" lon="7.13853">
        <ele>23.9</ele>
        <time>2011-10-02T09:36:15Z</time>
      </trkpt>
      <trkpt lat="43.56836" lon="7.13865">
        <ele>24</ele>
        <time>2011-10-02T09:36:20Z</time>
      </trkpt>
      <trkpt lat="43.56848" lon="7.13877">
        <ele>24</ele>
        <time>2011-10-02T09:36:25Z</time>
      </trkpt>
      <trkpt lat="43.56855" lon="7.13893">
        <ele>24.1</ele>
        <time>2011-10-02T09:36:29Z</time>
      </trkpt>
      <trkpt lat="43.56864" lon="7.13908">
        <ele>24.1</ele>
        <time>2011-10-02T09:36:35Z</time>
      </trkpt>
      <trkpt lat="43.5687" lon="7.13926">
        <ele>24.2</ele>
        <time>2011-10-02T09:36:40Z</time>
      </trkpt>
      <trkpt lat="43.56877" lon="7.13943">
        <ele>24.2</ele>
        <time>2011-10-02T09:36:45Z</time>
      </trkpt>
      <trkpt lat="43.56883" lon="7.13961">
        <ele>24.3</ele>
        <time>2011-10-02T09:36:50Z</time>
      </trkpt>
      <trkpt lat="43.56892" lon="7.13977">
        <ele>24.3</ele>
        <time>2011-10-02T09:36:55Z</time>
      </trkpt>
      <trkpt lat="43.56902" lon="7.1399">
        <ele>24.3</ele>
        <time>2011-10-02T09:37:00Z</time>
      </trkpt>
      <trkpt lat="43.56915" lon="7.13999">
        <ele>24.4</ele>
        <time>2011-10-02T09:37:05Z</time>
      </trkpt>
      <trkpt lat="43.56929" lon="7.14">
        <ele>24.5</ele>
        <time>2011-10-02T09:37:12Z</time>
      </trkpt>
      <trkpt lat="43.56944" lon="7.13995">
        <ele>24.5</ele>
        <time>2011-10-02T09:37:18Z</time>
      </trkpt>
      <trkpt lat="43.56956" lon="7.13983">
        <ele>24.5</ele>
        <time>2011-10-02T09:37:23Z</time>
      </trkpt>
      <trkpt lat="43.56969" lon="7.13969">
        <ele>24.6</ele>
        <time>2011-10-02T09:37:28Z</time>
      </trkpt>
      <trkpt lat="43.56978" lon="7.13953">
        <ele>24.6</ele>
        <time>2011-10-02T09:37:33Z</time>
      </trkpt>
      <trkpt lat="43.56985" lon="7.13933">
        <ele>24.7</ele>
        <time>2011-10-02T09:37:39Z</time>
      </trkpt>
      <trkpt lat="43.56988" lon="7.13914">
        <ele>24.7</ele>
        <time>2011-10-02T09:37:44Z</time>
      </trkpt>
      <trkpt lat="43.56989" lon="7.13893">
        <ele>24.8</ele>
        <time>2011-10-02T09:37:50Z</time>
      </trkpt>
      <trkpt lat="43.56985" lon="7.13872">
        <ele>24.8</ele>
        <time>2011-10-02T09:37:56Z</time>
      </trkpt>
      <trkpt lat="43.56983" lon="7.13853">
        <ele>24.9</ele>
        <time>2011-10-02T09:38:01Z</time>
      </trkpt>
      <trkpt lat="43.56977" lon="7.13833">
        <ele>24.9</ele>
        <time>2011-10-02T09:38:07Z</time>
      </trkpt>
      <trkpt lat="43.56974" lon="7.13812">
        <ele>25</ele>
        <time>2011-10-02T09:38:13Z</time>
      </trkpt>
      <trkpt lat="43.5697" lon="7.13791">
        <ele>25</ele>
        <time>2011-10-02T09:38:19Z</time>
      </trkpt>
      <trkpt lat="43.56966" lon="7.1377">
        <ele>25.1</ele>
        <time>2011-10-02T09:38:25Z</time>
      </trkpt>
      <trkpt lat="43.56966" lon="7.13749">
        <ele>25.2</ele>
        <time>2011-10-02T09:38:31Z</time>
      </trkpt>
      <trkpt lat="43.56965" lon="7.1373">
        <ele>25.2</ele>
        <time>2011-10-02T09:38:37Z</time>
      </trkpt>
      <trkpt lat="43.56971" lon="7.13712">
        <ele>25.3</ele>
        <time>2011-10-02T09:38:43Z</time>
      </trkpt>
      <trkpt lat="43.56973" lon="7.13692">
        <ele>25.3</ele>
        <time>2011-10-02T09:38:49Z</time>
      </trkpt>
      <trkpt lat="43.56978" lon="7.13674">
        <ele>25.3</ele>
        <time>2011-10-02T09:38:53Z</time>
      </trkpt>
      <trkpt lat="43.56982" lon="7.13653">
        <ele>25.4</ele>
        <time>2011-10-02T09:39:00Z</time>
      </trkpt>
      <trkpt lat="43.56984" lon="7.13634">
        <ele>25.5</ele>
        <time>2011-10-02T09:39:05Z</time>
      </trkpt>
      <trkpt lat="43.56982" lon="7.13614">
        <ele>25.5</ele>
        <time>2011-10-02T09:39:10Z</time>
      </trkpt>
      <trkpt lat="43.56978" lon="7.13594">
        <ele>25.5</ele>
        <time>2011-10-02T09:39:15Z</time>
      </trkpt>
      <trkpt lat="43.56976" lon="7.13575">
        <ele>25.6</ele>
        <time>2011-10-02T09:39:20Z</time>
      </trkpt>
      <trkpt lat="43.56977" lon="7.13555">
        <ele>25.6</ele>
        <time>2011-10-02T09:39:25Z</time>
      </trkpt>
      <trkpt lat="43.56976" lon="7.13535">
        <ele>25.7</ele>
        <time>2011-10-02T09:39:30Z</time>
      </trkpt>
      <trkpt lat="43.56976" lon="7.13514">
        <ele>25.7</ele>
        <time>2011-10-02T09:39:35Z</time>
      </trkpt>
      <trkpt lat="43.56975" lon="7.13493">
        <ele>25.8</ele>
        <time>2011-10-02T09:39:40Z</time>
      </trkpt>
      <trkpt lat="43.56975" lon="7.13472">
        <ele>25.8</ele>
        <time>2011-10-02T09:39:45Z</time>
      </trkpt>
      <trkpt lat="43.56977" lon="7.13453">
        <ele>25.9</ele>
        <time>2011-10-02T09:39:50Z</time>
      </trkpt>
      <trkpt lat="43.56981" lon="7.13431">
        <ele>25.9</ele>
        <time>2011-10-02T09:39:56Z</time>
      </trkpt>
      <trkpt lat="43.56986" lon="7.1341">
        <ele>26</ele>
        <time>2011-10-02T09:40:02Z</time>
      </trkpt>
      <trkpt lat="43.56992" lon="7.13389">
        <ele>26</ele>
        <time>2011-10-02T09:40:08Z</time>
      </trkpt>
      <trkpt lat="43.56997" lon="7.13371">
        <ele>26.1</ele>
        <time>2011-10-02T09:40:13Z</time>
      </trkpt>
      <trkpt lat="43.57001" lon="7.13353">
        <ele>26.1</ele>
        <time>2011-10-02T09:40:17Z</time>
      </trkpt>
      <trkpt lat="43.56999" lon="7.13332">
        <ele>26.2</ele>
        <time>2011-10-02T09:40:24Z</time>
      </trkpt>
      <trkpt lat="43.56992" lon="7.13316">
        <ele>26.2</ele>
        <time>2011-10-02T09:40:29Z</time>
      </trkpt>
      <trkpt lat="43.56982" lon="7.13302">
        <ele>26.2</ele>
        <time>2011-10-02T09:40:34Z</time>
      </trkpt>
      <trkpt lat="43.56972" lon="7.13284">
        <ele>26.3</ele>
        <time>2011-10-02T09:40:40Z</time>
      </trkpt>
      <trkpt lat="43.56964" lon="7.13264">
        <ele>26.4</ele>
        <time>2011-10-02T09:40:47Z</time>
      </trkpt>
      <trkpt lat="43.56955" lon="7.13248">
        <ele>26.4</ele>
        <time>2011-10-02T09:40:52Z</time>
      </trkpt>
      <trkpt lat="43.56943" lon="7.13235">
        <ele>26.5</ele>
        <time>2011-10-02T09:40:57Z</time>
      </trkpt>
      <trkpt lat="43.56934" lon="7.1322">
        <ele>26.5</ele>
        <time>2011-10-02T09:41:02Z</time>
      </trkpt>
      <trkpt lat="43.56921" lon="7.13205">
        <ele>26.5</ele>
        <time>2011-10-02T09:41:07Z</time>
      </trkpt>
      <trkpt lat="43.56913" lon="7.13189">
        <ele>26.6</ele>
        <time>2011-10-02T09:41:13Z</time>
      </trkpt>
      <trkpt lat="43.56902" lon="7.13174">
        <ele>26.6</ele>
        <time>2011-10-02T09:41:18Z</time>
      </trkpt>
      <trkpt lat="43.56895" lon="7.13156">
        <ele>26.7</ele>
        <time>2011-10-02T09:41:22Z</time>
      </trkpt>
      <trkpt lat="43.56889" lon="7.13131">
        <ele>26.7</ele>
        <time>2011-10-02T09:41:28Z</time>
      </trkpt>
      <trkpt lat="43.56887" lon="7.13111">
        <ele>26.8</ele>
        <time>2011-10-02T09:41:34Z</time>
      </trkpt>
      <trkpt lat="43.56892" lon="7.13092">
        <ele>26.8</ele>
        <time>2011-10-02T09:41:39Z</time>
      </trkpt>
      <trkpt lat="43.56899" lon="7.13075">
        <ele>26.9</ele>
        <time>2011-10-02T09:41:44Z</time>
      </trkpt>
      <trkpt lat="43.56904" lon="7.13058">
        <ele>26.9</ele>
        <time>2011-10-02T09:41:49Z</time>
      </trkpt>
      <trkpt lat="43.56895" lon="7.13042">
        <ele>27</ele>
        <time>2011-10-02T09:41:55Z</time>
      </trkpt>
      <trkpt lat="43.56883" lon="7.13032">
        <ele>27</ele>
        <time>2011-10-02T09:42:01Z</time>
      </trkpt>
      <trkpt lat="43.56871" lon="7.13021">
        <ele>27.1</ele>
        <time>2011-10-02T09:42:07Z</time>
      </trkpt>
      <trkpt lat="43.56859" lon="7.1301">
        <ele>27.1</ele>
        <time>2011-10-02T09:42:13Z</time>
      </trkpt>
      <trkpt lat="43.56847" lon="7.13001">
        <ele>27.2</ele>
        <time>2011-10-02T09:42:19Z</time>
      </trkpt>
      <trkpt lat="43.56835" lon="7.12991">
        <ele>27.2</ele>
        <time>2011-10-02T09:42:24Z</time>
      </trkpt>
      <trkpt lat="43.56822" lon="7.12979">
        <ele>27.3</ele>
        <time>2011-10-02T09:42:30Z</time>
      </trkpt>
      <trkpt lat="43.56809" lon="7.12969">
        <ele>27.3</ele>
        <time>2011-10-02T09:42:37Z</time>
      </trkpt>
      <trkpt lat="43.56796" lon="7.12959">
        <ele>27.4</ele>
        <time>2011-10-02T09:42:44Z</time>
      </trkpt>
      <trkpt lat="43.56783" lon="7.12948">
        <ele>27.5</ele>
        <time>2011-10-02T09:42:51Z</time>
      </trkpt>
      <trkpt lat="43.56768" lon="7.12934">
        <ele>27.5</ele>
        <time>2011-10-02T09:42:58Z</time>
      </trkpt>
      <trkpt lat="43.56754" lon="7.12925">
        <ele>27.6</ele>
        <time>2011-10-02T09:43:05Z</time>
      </trkpt>
      <trkpt lat="43.5674" lon="7.12914">
        <ele>27.6</ele>
        <time>2011-10-02T09:43:11Z</time>
      </trkpt>
      <trkpt lat="43.56728" lon="7.12904">
        <ele>27.7</ele>
        <time>2011-10-02T09:43:17Z</time>
      </trkpt>
      <trkpt lat="43.56715" lon="7.12894">
        <ele>27.8</ele>
        <time>2011-10-02T09:43:23Z</time>
      </trkpt>
      <trkpt lat="43.56702" lon="7.12883">
        <ele>27.8</ele>
        <time>2011-10-02T09:43:29Z</time>
      </trkpt>
      <trkpt lat="43.56688" lon="7.12873">
        <ele>27.9</ele>
        <time>2011-10-02T09:43:35Z</time>
      </trkpt>
      <trkpt lat="43.56676" lon="7.12859">
        <ele>27.9</ele>
        <time>2011-10-02T09:43:42Z</time>
      </trkpt>
      <trkpt lat="43.56661" lon="7.12845">
        <ele>28</ele>
        <time>2011-10-02T09:43:48Z</time>
      </trkpt>
      <trkpt lat="43.5665" lon="7.12833">
        <ele>28</ele>
        <time>2011-10-02T09:43:55Z</time>
      </trkpt>
      <trkpt lat="43.56638" lon="7.12824">
        <ele>28.1</ele>
        <time>2011-10-02T09:44:01Z</time>
      </trkpt>
      <trkpt lat="43.56625" lon="7.12815">
        <ele>28.1</ele>
        <time>2011-10-02T09:44:07Z</time>
      </trkpt>
      <trkpt lat="43.5661" lon="7.12802">
        <ele>28.2</ele>
        <time>2011-10-02T09:44:15Z</time>
      </trkpt>
      <trkpt lat="43.56596" lon="7.12793">
        <ele>28.3</ele>
        <time>2011-10-02T09:44:23Z</time>
      </trkpt>
      <trkpt lat="43.56584" lon="7.12782">
        <ele>28.3</ele>
        <time>2011-10-02T09:44:28Z</time>
      </trkpt>
      <trkpt lat="43.56571" lon="7.12772">
        <ele>28.4</ele>
        <time>2011-10-02T09:44:35Z</time>
      </trkpt>
      <trkpt lat="43.56555" lon="7.12768">
        <ele>28.5</ele>
        <time>2011-10-02T09:44:42Z</time>
      </trkpt>
      <trkpt lat="43.56541" lon="7.12769">
        <ele>28.5</ele>
        <time>2011-10-02T09:44:50Z</time>
      </trkpt>
      <trkpt lat="43.56527" lon="7.1277">
        <ele>28.6</ele>
        <time>2011-10-02T09:44:57Z</time>
      </trkpt>
      <trkpt lat="43.56514" lon="7.12767">
        <ele>28.7</ele>
        <time>2011-10-02T09:45:04Z</time>
      </trkpt>
      <trkpt lat="43.56499" lon="7.12769">
        <ele>28.7</ele>
        <time>2011-10-02T09:45:12Z</time>
      </trkpt>
      <trkpt lat="43.56484" lon="7.12775">
        <ele>28.8</ele>
        <time>2011-10-02T09:45:20Z</time>
      </trkpt>
      <trkpt lat="43.5647" lon="7.12778">
        <ele>28.9</ele>
        <time>2011-10-02T09:45:27Z</time>
      </trkpt>
      <trkpt lat="43.56454" lon="7.12777">
        <ele>28.9</ele>
        <time>2011-10-02T09:45:34Z</time>
      </trkpt>
      <trkpt lat="43.5644" lon="7.12771">
        <ele>29</ele>
        <time>2011-10-02T09:45:41Z</time>
      </trkpt>
      <trkpt lat="43.56426" lon="7.12766">
        <ele>29.1</ele>
        <time>2011-10-02T09:45:49Z</time>
      </trkpt>
      <trkpt lat="43.56412" lon="7.12764">
        <ele>29.1</ele>
        <time>2011-10-02T09:45:57Z</time>
      </trkpt>
      <trkpt lat="43.564" lon="7.12773">
        <ele>29.2</ele>
        <time>2011-10-02T09:46:04Z</time>
      </trkpt>
      <trkpt lat="43.56393" lon="7.1279">
        <ele>29.2</ele>
        <time>2011-10-02T09:46:10Z</time>
      </trkpt>
      <trkpt lat="43.56386" lon="7.12806">
        <ele>29.3</ele>
        <time>2011-10-02T09:46:17Z</time>
      </trkpt>
      <trkpt lat="43.56383" lon="7.12835">
        <ele>29.4</ele>
        <time>2011-10-02T09:46:28Z</time>
      </trkpt>
      <trkpt lat="43.56383" lon="7.12835">
        <ele>29.7</ele>
        <time>2011-10-02T09:47:03Z</time>
      </trkpt>
      <trkpt lat="43.56381" lon="7.12843">
        <ele>29.7</ele>
        <time>2011-10-02T09:47:05Z</time>
      </trkpt>
      <trkpt lat="43.56366" lon="7.12839">
        <ele>29.8</ele>
        <time>2011-10-02T09:47:11Z</time>
      </trkpt>
      <trkpt lat="43.56352" lon="7.12837">
        <ele>29.8</ele>
        <time>2011-10-02T09:47:17Z</time>
      </trkpt>
      <trkpt lat="43.56338" lon="7.12833">
        <ele>29.9</ele>
        <time>2011-10-02T09:47:23Z</time>
      </trkpt>
      <trkpt lat="43.56324" lon="7.12832">
        <ele>29.9</ele>
        <time>2011-10-02T09:47:29Z</time>
      </trkpt>
      <trkpt lat="43.5631" lon="7.1283">
        <ele>30</ele>
        <time>2011-10-02T09:47:36Z</time>
      </trkpt>
      <trkpt lat="43.56297" lon="7.12828">
        <ele>30.1</ele>
        <time>2011-10-02T09:47:44Z</time>
      </trkpt>
      <trkpt lat="43.56282" lon="7.12834">
        <ele>30.1</ele>
        <time>2011-10-02T09:47:51Z</time>
      </trkpt>
      <trkpt lat="43.56267" lon="7.12848">
        <ele>30.3</ele>
        <time>2011-10-02T09:47:59Z</time>
      </trkpt>
      <trkpt lat="43.56257" lon="7.12856">
        <ele>31.1</ele>
        <time>2011-10-02T09:48:15Z</time>
      </trkpt>
      <trkpt lat="43.56245" lon="7.12869">
        <ele>31.9</ele>
        <time>2011-10-02T09:48:30Z</time>
      </trkpt>
      <trkpt lat="43.56229" lon="7.12873">
        <ele>32.2</ele>
        <time>2011-10-02T09:48:37Z</time>
      </trkpt>
      <trkpt lat="43.56213" lon="7.12871">
        <ele>32.5</ele>
        <time>2011-10-02T09:48:42Z</time>
      </trkpt>
      <trkpt lat="43.56196" lon="7.12868">
        <ele>32.7</ele>
        <time>2011-10-02T09:48:47Z</time>
      </trkpt>
      <trkpt lat="43.56181" lon="7.12863">
        <ele>33</ele>
        <time>2011-10-02T09:48:52Z</time>
      </trkpt>
      <trkpt lat="43.56167" lon="7.12862">
        <ele>33.2</ele>
        <time>2011-10-02T09:48:57Z</time>
      </trkpt>
      <trkpt lat="43.56153" lon="7.12858">
        <ele>33.5</ele>
        <time>2011-10-02T09:49:02Z</time>
      </trkpt>
      <trkpt lat="43.5615" lon="7.1285">
        <ele>33.6</ele>
        <time>2011-10-02T09:49:04Z</time>
      </trkpt>
      <trkpt lat="43.5616" lon="7.12835">
        <ele>33.8</ele>
        <time>2011-10-02T09:49:09Z</time>
      </trkpt>
      <trkpt lat="43.56173" lon="7.12822">
        <ele>34.1</ele>
        <time>2011-10-02T09:49:14Z</time>
      </trkpt>
      <trkpt lat="43.56185" lon="7.12809">
        <ele>34.5</ele>
        <time>2011-10-02T09:49:21Z</time>
      </trkpt>
      <trkpt lat="43.56197" lon="7.12796">
        <ele>34.7</ele>
        <time>2011-10-02T09:49:26Z</time>
      </trkpt>
      <trkpt lat="43.56208" lon="7.12781">
        <ele>35</ele>
        <time>2011-10-02T09:49:31Z</time>
      </trkpt>
      <trkpt lat="43.56218" lon="7.12768">
        <ele>35.3</ele>
        <time>2011-10-02T09:49:37Z</time>
      </trkpt>
      <trkpt lat="43.56229" lon="7.12753">
        <ele>35.6</ele>
        <time>2011-10-02T09:49:44Z</time>
      </trkpt>
      <trkpt lat="43.56235" lon="7.12735">
        <ele>35.9</ele>
        <time>2011-10-02T09:49:49Z</time>
      </trkpt>
      <trkpt lat="43.56242" lon="7.12715">
        <ele>36.2</ele>
        <time>2011-10-02T09:49:55Z</time>
      </trkpt>
      <trkpt lat="43.5625" lon="7.127">
        <ele>36.4</ele>
        <time>2011-10-02T09:50:00Z</time>
      </trkpt>
      <trkpt lat="43.56261" lon="7.12687">
        <ele>36.7</ele>
        <time>2011-10-02T09:50:05Z</time>
      </trkpt>
      <trkpt lat="43.56274" lon="7.12675">
        <ele>37</ele>
        <time>2011-10-02T09:50:11Z</time>
      </trkpt>
      <trkpt lat="43.56286" lon="7.12665">
        <ele>37.3</ele>
        <time>2011-10-02T09:50:17Z</time>
      </trkpt>
      <trkpt lat="43.56298" lon="7.12651">
        <ele>37.6</ele>
        <time>2011-10-02T09:50:23Z</time>
      </trkpt>
      <trkpt lat="43.5631" lon="7.12638">
        <ele>37.9</ele>
        <time>2011-10-02T09:50:29Z</time>
      </trkpt>
      <trkpt lat="43.56322" lon="7.12627">
        <ele>38.2</ele>
        <time>2011-10-02T09:50:34Z</time>
      </trkpt>
      <trkpt lat="43.56334" lon="7.12612">
        <ele>38.4</ele>
        <time>2011-10-02T09:50:39Z</time>
      </trkpt>
      <trkpt lat="43.56348" lon="7.12597">
        <ele>38.7</ele>
        <time>2011-10-02T09:50:45Z</time>
      </trkpt>
      <trkpt lat="43.56359" lon="7.12582">
        <ele>39.1</ele>
        <time>2011-10-02T09:50:52Z</time>
      </trkpt>
      <trkpt lat="43.56371" lon="7.1257">
        <ele>39.3</ele>
        <time>2011-10-02T09:50:57Z</time>
      </trkpt>
      <trkpt lat="43.56383" lon="7.12557">
        <ele>39.6</ele>
        <time>2011-10-02T09:51:02Z</time>
      </trkpt>
      <trkpt lat="43.56399" lon="7.12548">
        <ele>39.8</ele>
        <time>2011-10-02T09:51:07Z</time>
      </trkpt>
      <trkpt lat="43.56414" lon="7.12541">
        <ele>40.2</ele>
        <time>2011-10-02T09:51:14Z</time>
      </trkpt>
      <trkpt lat="43.56426" lon="7.12533">
        <ele>40.1</ele>
        <time>2011-10-02T09:51:19Z</time>
      </trkpt>
      <trkpt lat="43.56439" lon="7.12521">
        <ele>40</ele>
        <time>2011-10-02T09:51:25Z</time>
      </trkpt>
      <trkpt lat="43.56451" lon="7.1251">
        <ele>39.9</ele>
        <time>2011-10-02T09:51:30Z</time>
      </trkpt>
      <trkpt lat="43.56462" lon="7.12497">
        <ele>39.8</ele>
        <time>2011-10-02T09:51:34Z</time>
      </trkpt>
      <trkpt lat="43.56476" lon="7.12484">
        <ele>39.7</ele>
        <time>2011-10-02T09:51:40Z</time>
      </trkpt>
      <trkpt lat="43.5649" lon="7.12476">
        <ele>39.6</ele>
        <time>2011-10-02T09:51:46Z</time>
      </trkpt>
      <trkpt lat="43.56503" lon="7.12464">
        <ele>39.4</ele>
        <time>2011-10-02T09:51:53Z</time>
      </trkpt>
      <trkpt lat="43.56516" lon="7.12454">
        <ele>39.3</ele>
        <time>2011-10-02T09:51:59Z</time>
      </trkpt>
      <trkpt lat="43.56529" lon="7.1245">
        <ele>39.1</ele>
        <time>2011-10-02T09:52:05Z</time>
      </trkpt>
      <trkpt lat="43.56543" lon="7.1245">
        <ele>39</ele>
        <time>2011-10-02T09:52:10Z</time>
      </trkpt>
      <trkpt lat="43.56556" lon="7.12456">
        <ele>38.9</ele>
        <time>2011-10-02T09:52:16Z</time>
      </trkpt>
      <trkpt lat="43.56568" lon="7.12469">
        <ele>38.8</ele>
        <time>2011-10-02T09:52:21Z</time>
      </trkpt>
      <trkpt lat="43.5658" lon="7.1248">
        <ele>38.7</ele>
        <time>2011-10-02T09:52:26Z</time>
      </trkpt>
      <trkpt lat="43.56595" lon="7.12488">
        <ele>38.6</ele>
        <time>2011-10-02T09:52:32Z</time>
      </trkpt>
      <trkpt lat="43.56606" lon="7.12493">
        <ele>38.4</ele>
        <time>2011-10-02T09:52:37Z</time>
      </trkpt>
      <trkpt lat="43.56621" lon="7.12486">
        <ele>38.3</ele>
        <time>2011-10-02T09:52:43Z</time>
      </trkpt>
      <trkpt lat="43.56637" lon="7.12484">
        <ele>38.2</ele>
        <time>2011-10-02T09:52:49Z</time>
      </trkpt>
      <trkpt lat="43.56652" lon="7.12485">
        <ele>38</ele>
        <time>2011-10-02T09:52:55Z</time>
      </trkpt>
      <trkpt lat="43.56667" lon="7.12484">
        <ele>37.9</ele>
        <time>2011-10-02T09:53:01Z</time>
      </trkpt>
      <trkpt lat="43.56683" lon="7.12482">
        <ele>37.8</ele>
        <time>2011-10-02T09:53:07Z</time>
      </trkpt>
      <trkpt lat="43.56704" lon="7.12475">
        <ele>37.7</ele>
        <time>2011-10-02T09:53:13Z</time>
      </trkpt>
      <trkpt lat="43.56718" lon="7.12469">
        <ele>37.5</ele>
        <time>2011-10-02T09:53:20Z</time>
      </trkpt>
      <trkpt lat="43.56731" lon="7.12463">
        <ele>37.4</ele>
        <time>2011-10-02T09:53:26Z</time>
      </trkpt>
      <trkpt lat="43.56745" lon="7.12459">
        <ele>37.2</ele>
        <time>2011-10-02T09:53:32Z</time>
      </trkpt>
      <trkpt lat="43.56758" lon="7.12451">
        <ele>37.1</ele>
        <time>2011-10-02T09:53:38Z</time>
      </trkpt>
      <trkpt lat="43.56773" lon="7.12447">
        <ele>37</ele>
        <time>2011-10-02T09:53:43Z</time>
      </trkpt>
      <trkpt lat="43.56787" lon="7.12444">
        <ele>36.8</ele>
        <time>2011-10-02T09:53:50Z</time>
      </trkpt>
      <trkpt lat="43.56798" lon="7.12433">
        <ele>36.8</ele>
        <time>2011-10-02T09:53:54Z</time>
      </trkpt>
      <trkpt lat="43.56789" lon="7.12419">
        <ele>36.6</ele>
        <time>2011-10-02T09:54:03Z</time>
      </trkpt>
      <trkpt lat="43.56784" lon="7.124">
        <ele>36.4</ele>
        <time>2011-10-02T09:54:10Z</time>
      </trkpt>
      <trkpt lat="43.56777" lon="7.12383">
        <ele>36.3</ele>
        <time>2011-10-02T09:54:17Z</time>
      </trkpt>
      <trkpt lat="43.56772" lon="7.12365">
        <ele>36.1</ele>
        <time>2011-10-02T09:54:23Z</time>
      </trkpt>
      <trkpt lat="43.56764" lon="7.12349">
        <ele>36</ele>
        <time>2011-10-02T09:54:29Z</time>
      </trkpt>
      <trkpt lat="43.5676" lon="7.1233">
        <ele>35.8</ele>
        <time>2011-10-02T09:54:36Z</time>
      </trkpt>
      <trkpt lat="43.56757" lon="7.12308">
        <ele>35.7</ele>
        <time>2011-10-02T09:54:43Z</time>
      </trkpt>
      <trkpt lat="43.56755" lon="7.12287">
        <ele>35.5</ele>
        <time>2011-10-02T09:54:52Z</time>
      </trkpt>
      <trkpt lat="43.56758" lon="7.12267">
        <ele>35.3</ele>
        <time>2011-10-02T09:54:59Z</time>
      </trkpt>
      <trkpt lat="43.56755" lon="7.12246">
        <ele>35.2</ele>
        <time>2011-10-02T09:55:07Z</time>
      </trkpt>
      <trkpt lat="43.56749" lon="7.12227">
        <ele>35</ele>
        <time>2011-10-02T09:55:15Z</time>
      </trkpt>
      <trkpt lat="43.56744" lon="7.12208">
        <ele>34.8</ele>
        <time>2011-10-02T09:55:22Z</time>
      </trkpt>
      <trkpt lat="43.56739" lon="7.12189">
        <ele>34.7</ele>
        <time>2011-10-02T09:55:29Z</time>
      </trkpt>
      <trkpt lat="43.56735" lon="7.12169">
        <ele>34.5</ele>
        <time>2011-10-02T09:55:37Z</time>
      </trkpt>
      <trkpt lat="43.56728" lon="7.12151">
        <ele>34.4</ele>
        <time>2011-10-02T09:55:44Z</time>
      </trkpt>
      <trkpt lat="43.56717" lon="7.12134">
        <ele>34.2</ele>
        <time>2011-10-02T09:55:50Z</time>
      </trkpt>
      <trkpt lat="43.56704" lon="7.12129">
        <ele>34.1</ele>
        <time>2011-10-02T09:55:55Z</time>
      </trkpt>
      <trkpt lat="43.5669" lon="7.12124">
        <ele>34</ele>
        <time>2011-10-02T09:56:01Z</time>
      </trkpt>
      <trkpt lat="43.56678" lon="7.12116">
        <ele>33.9</ele>
        <time>2011-10-02T09:56:07Z</time>
      </trkpt>
      <trkpt lat="43.56664" lon="7.12106">
        <ele>33.7</ele>
        <time>2011-10-02T09:56:14Z</time>
      </trkpt>
      <trkpt lat="43.56654" lon="7.12094">
        <ele>33.6</ele>
        <time>2011-10-02T09:56:19Z</time>
      </trkpt>
      <trkpt lat="43.56643" lon="7.12078">
        <ele>33.5</ele>
        <time>2011-10-02T09:56:23Z</time>
      </trkpt>
      <trkpt lat="43.56631" lon="7.12061">
        <ele>33.4</ele>
        <time>2011-10-02T09:56:27Z</time>
      </trkpt>
      <trkpt lat="43.56624" lon="7.12045">
        <ele>33.3</ele>
        <time>2011-10-02T09:56:31Z</time>
      </trkpt>
      <trkpt lat="43.56619" lon="7.12024">
        <ele>33.2</ele>
        <time>2011-10-02T09:56:37Z</time>
      </trkpt>
      <trkpt lat="43.56614" lon="7.12016">
        <ele>33.1</ele>
        <time>2011-10-02T09:56:40Z</time>
      </trkpt>
      <trkpt lat="43.56608" lon="7.11996">
        <ele>33</ele>
        <time>2011-10-02T09:56:46Z</time>
      </trkpt>
      <trkpt lat="43.56603" lon="7.11975">
        <ele>32.9</ele>
        <time>2011-10-02T09:56:52Z</time>
      </trkpt>
      <trkpt lat="43.56597" lon="7.11955">
        <ele>32.7</ele>
        <time>2011-10-02T09:56:58Z</time>
      </trkpt>
      <trkpt lat="43.56594" lon="7.11934">
        <ele>32.6</ele>
        <time>2011-10-02T09:57:04Z</time>
      </trkpt>
      <trkpt lat="43.56589" lon="7.11917">
        <ele>32.5</ele>
        <time>2011-10-02T09:57:09Z</time>
      </trkpt>
      <trkpt lat="43.56585" lon="7.11898">
        <ele>32.4</ele>
        <time>2011-10-02T09:57:14Z</time>
      </trkpt>
      <trkpt lat="43.56583" lon="7.11879">
        <ele>32.3</ele>
        <time>2011-10-02T09:57:19Z</time>
      </trkpt>
      <trkpt lat="43.56576" lon="7.11861">
        <ele>32.2</ele>
        <time>2011-10-02T09:57:24Z</time>
      </trkpt>
      <trkpt lat="43.56568" lon="7.11842">
        <ele>32.1</ele>
        <time>2011-10-02T09:57:29Z</time>
      </trkpt>
      <trkpt lat="43.56561" lon="7.11825">
        <ele>32</ele>
        <time>2011-10-02T09:57:33Z</time>
      </trkpt>
      <trkpt lat="43.56552" lon="7.11805">
        <ele>31.9</ele>
        <time>2011-10-02T09:57:38Z</time>
      </trkpt>
      <trkpt lat="43.56548" lon="7.11786">
        <ele>31.8</ele>
        <time>2011-10-02T09:57:43Z</time>
      </trkpt>
      <trkpt lat="43.56545" lon="7.11765">
        <ele>31.6</ele>
        <time>2011-10-02T09:57:49Z</time>
      </trkpt>
      <trkpt lat="43.56542" lon="7.11746">
        <ele>31.5</ele>
        <time>2011-10-02T09:57:54Z</time>
      </trkpt>
      <trkpt lat="43.5654" lon="7.11727">
        <ele>31.4</ele>
        <time>2011-10-02T09:57:59Z</time>
      </trkpt>
      <trkpt lat="43.5655" lon="7.11709">
        <ele>31.3</ele>
        <time>2011-10-02T09:58:04Z</time>
      </trkpt>
      <trkpt lat="43.56564" lon="7.117">
        <ele>31.2</ele>
        <time>2011-10-02T09:58:09Z</time>
      </trkpt>
      <trkpt lat="43.56578" lon="7.11691">
        <ele>31.1</ele>
        <time>2011-10-02T09:58:12Z</time>
      </trkpt>
      <trkpt lat="43.56593" lon="7.11683">
        <ele>31</ele>
        <time>2011-10-02T09:58:16Z</time>
      </trkpt>
      <trkpt lat="43.56608" lon="7.11675">
        <ele>30.9</ele>
        <time>2011-10-02T09:58:20Z</time>
      </trkpt>
      <trkpt lat="43.56622" lon="7.11666">
        <ele>30.9</ele>
        <time>2011-10-02T09:58:24Z</time>
      </trkpt>
      <trkpt lat="43.56625" lon="7.11646">
        <ele>30.7</ele>
        <time>2011-10-02T09:58:29Z</time>
      </trkpt>
      <trkpt lat="43.56625" lon="7.11625">
        <ele>30.6</ele>
        <time>2011-10-02T09:58:34Z</time>
      </trkpt>
      <trkpt lat="43.5662" lon="7.11609">
        <ele>30.6</ele>
        <time>2011-10-02T09:58:37Z</time>
      </trkpt>
      <trkpt lat="43.56623" lon="7.11589">
        <ele>30.5</ele>
        <time>2011-10-02T09:58:40Z</time>
      </trkpt>
      <trkpt lat="43.56634" lon="7.11572">
        <ele>30.4</ele>
        <time>2011-10-02T09:58:45Z</time>
      </trkpt>
      <trkpt lat="43.56645" lon="7.11554">
        <ele>30.3</ele>
        <time>2011-10-02T09:58:49Z</time>
      </trkpt>
      <trkpt lat="43.56655" lon="7.1154">
        <ele>29.9</ele>
        <time>2011-10-02T09:59:00Z</time>
      </trkpt>
      <trkpt lat="43.56655" lon="7.1154">
        <ele>29.9</ele>
        <time>2011-10-02T09:59:00Z</time>
      </trkpt>
    </trkseg>
  </trk>
</gpx>